| time (UTC) | temp F | wind direction | speed MPH | gust MPH | rain 1hr in | rain 24hr in | rain mn in | humidity % | barometer mb |
| 20260506070103 | 64 | 213 | 6.0 | 16.0 | 0.00 | 1.13 | 1.12 | 87 | 1009.6 |
| 20260506062503 | 64 | 204 | 8.0 | 15.0 | 0.20 | 1.15 | 1.12 | 86 | 1009.6 |
| 20260506062403 | 64 | 205 | 8.0 | 16.0 | 0.22 | 1.15 | 1.12 | 86 | 1009.7 |
| 20260506062305 | 64 | 206 | 8.0 | 16.0 | 0.23 | 1.15 | 1.12 | 86 | 1009.7 |
| 20260506062203 | 64 | 205 | 8.0 | 22.0 | 0.24 | 1.15 | 1.12 | 86 | 1009.6 |
| 20260506062103 | 64 | 208 | 9.0 | 22.0 | 0.26 | 1.15 | 1.12 | 86 | 1009.6 |
| 20260506062003 | 64 | 212 | 9.0 | 22.0 | 0.28 | 1.15 | 1.12 | 86 | 1009.6 |
| 20260506061904 | 64 | 210 | 9.0 | 22.0 | 0.30 | 1.15 | 1.12 | 86 | 1009.6 |
| 20260506061803 | 64 | 210 | 9.0 | 22.0 | 0.31 | 1.15 | 1.12 | 86 | 1009.6 |
| 20260506061703 | 64 | 209 | 9.0 | 22.0 | 0.33 | 1.15 | 1.12 | 86 | 1009.5 |
| 20260506061603 | 64 | 210 | 9.0 | 22.0 | 0.36 | 1.15 | 1.12 | 86 | 1009.6 |
| 20260506061503 | 64 | 212 | 9.0 | 22.0 | 0.39 | 1.15 | 1.12 | 86 | 1009.6 |
| 20260506061403 | 64 | 214 | 9.0 | 22.0 | 0.48 | 1.15 | 1.12 | 86 | 1009.6 |
| 20260506061304 | 64 | 215 | 9.0 | 22.0 | 0.54 | 1.15 | 1.12 | 86 | 1009.6 |
| 20260506061203 | 64 | 216 | 8.0 | 18.0 | 0.58 | 1.15 | 1.12 | 86 | 1009.5 |
| 20260506061103 | 64 | 215 | 8.0 | 18.0 | 0.60 | 1.15 | 1.12 | 86 | 1009.5 |
| 20260506061003 | 64 | 216 | 8.0 | 20.0 | 0.63 | 1.15 | 1.12 | 86 | 1009.5 |
| 20260506060903 | 64 | 217 | 8.0 | 20.0 | 0.65 | 1.15 | 1.12 | 86 | 1009.5 |
| 20260506060803 | 64 | 218 | 8.0 | 20.0 | 0.65 | 1.15 | 1.12 | 86 | 1009.6 |
| 20260506060703 | 64 | 218 | 8.0 | 20.0 | 0.65 | 1.15 | 1.12 | 87 | 1009.5 |
| 20260506060603 | 64 | 219 | 8.0 | 20.0 | 0.65 | 1.15 | 1.12 | 86 | 1009.6 |
| 20260506060503 | 64 | 220 | 8.0 | 20.0 | 0.65 | 1.15 | 1.12 | 87 | 1009.3 |
| 20260506060403 | 64 | 219 | 8.0 | 20.0 | 0.65 | 1.15 | 1.12 | 87 | 1009.3 |
| 20260506060303 | 63 | 216 | 8.0 | 20.0 | 0.65 | 1.15 | 1.12 | 87 | 1009.3 |
| 20260506060203 | 63 | 214 | 8.0 | 21.0 | 0.65 | 1.15 | 1.12 | 87 | 1009.3 |
| 20260506051403 | 63 | 221 | 7.0 | 26.0 | 0.25 | 0.84 | 0.64 | 86 | 1009.9 |
| 20260506051303 | 63 | 225 | 7.0 | 12.0 | 0.20 | 0.79 | 0.60 | 87 | 1009.6 |
| 20260506051203 | 63 | 224 | 7.0 | 17.0 | 0.15 | 0.74 | 0.55 | 87 | 1009.4 |
| 20260506051103 | 63 | 221 | 7.0 | 17.0 | 0.13 | 0.73 | 0.52 | 87 | 1009.3 |
| 20260506051003 | 63 | 222 | 7.0 | 17.0 | 0.10 | 0.71 | 0.49 | 87 | 1009.3 |
| 20260506050903 | 63 | 223 | 7.0 | 17.0 | 0.09 | 0.69 | 0.47 | 87 | 1009.3 |
| 20260506050803 | 63 | 221 | 7.0 | 17.0 | 0.08 | 0.69 | 0.46 | 87 | 1009.2 |
| 20260506050703 | 63 | 221 | 7.0 | 17.0 | 0.08 | 0.69 | 0.46 | 87 | 1009.2 |
| 20260506050603 | 63 | 221 | 6.0 | 17.0 | 0.08 | 0.69 | 0.46 | 87 | 1009.2 |
| 20260506050504 | 63 | 218 | 6.0 | 17.0 | 0.08 | 0.70 | 0.46 | 87 | 1009.2 |
| 20260506050403 | 63 | 217 | 6.0 | 17.0 | 0.09 | 0.70 | 0.46 | 87 | 1009.2 |
| 20260506050303 | 63 | 218 | 6.0 | 17.0 | 0.09 | 0.71 | 0.46 | 87 | 1009.2 |
| 20260506050203 | 63 | 217 | 6.0 | 15.0 | 0.09 | 0.71 | 0.46 | 87 | 1009.1 |
| 20260506050103 | 63 | 219 | 6.0 | 15.0 | 0.09 | 0.72 | 0.46 | 88 | 1009.1 |
| 20260506045104 | 63 | 208 | 8.0 | 24.0 | 0.11 | 0.74 | 0.46 | 88 | 1009.2 |
| 20260506045003 | 63 | 207 | 8.0 | 24.0 | 0.10 | 0.74 | 0.45 | 88 | 1009.3 |
| 20260506044903 | 63 | 208 | 8.0 | 24.0 | 0.09 | 0.73 | 0.43 | 88 | 1009.4 |
| 20260506044803 | 63 | 209 | 8.0 | 24.0 | 0.08 | 0.72 | 0.43 | 88 | 1009.3 |
| 20260506044703 | 63 | 207 | 8.0 | 24.0 | 0.08 | 0.72 | 0.43 | 88 | 1009.3 |
| 20260506044603 | 63 | 205 | 8.0 | 24.0 | 0.09 | 0.73 | 0.43 | 88 | 1009.2 |
| 20260506044503 | 63 | 208 | 9.0 | 24.0 | 0.10 | 0.74 | 0.43 | 88 | 1009.2 |
| 20260506044403 | 63 | 212 | 9.0 | 19.0 | 0.13 | 0.73 | 0.42 | 88 | 1009.3 |
| 20260506044303 | 63 | 212 | 9.0 | 19.0 | 0.16 | 0.73 | 0.41 | 88 | 1009.3 |
| 20260506044203 | 63 | 211 | 9.0 | 19.0 | 0.16 | 0.73 | 0.40 | 88 | 1009.3 |
| 20260506044103 | 63 | 211 | 9.0 | 19.0 | 0.15 | 0.72 | 0.39 | 88 | 1009.3 |
| 20260506044003 | 63 | 209 | 10.0 | 19.0 | 0.15 | 0.74 | 0.39 | 88 | 1009.3 |
| 20260506043903 | 63 | 209 | 10.0 | 19.0 | 0.14 | 0.74 | 0.39 | 88 | 1009.3 |
| 20260506043703 | 63 | 212 | 10.0 | 19.0 | 0.14 | 0.75 | 0.39 | 88 | 1009.2 |
| 20260506043603 | 63 | 215 | 10.0 | 18.0 | 0.14 | 0.75 | 0.39 | 88 | 1009.1 |
| 20260506043503 | 63 | 217 | 9.0 | 20.0 | 0.14 | 0.76 | 0.39 | 88 | 1009.1 |
| 20260506043403 | 63 | 216 | 9.0 | 22.0 | 0.14 | 0.76 | 0.39 | 89 | 1009.2 |
| 20260506043303 | 63 | 218 | 9.0 | 22.0 | 0.14 | 0.76 | 0.39 | 89 | 1009.2 |
| 20260506043203 | 63 | 218 | 9.0 | 22.0 | 0.14 | 0.76 | 0.39 | 89 | 1009.2 |
| 20260506043103 | 63 | 217 | 8.0 | 22.0 | 0.14 | 0.76 | 0.39 | 88 | 1009.2 |
| 20260506043003 | 63 | 219 | 8.0 | 22.0 | 0.14 | 0.76 | 0.39 | 88 | 1009.1 |
| 20260506042903 | 63 | 218 | 8.0 | 22.0 | 0.14 | 0.77 | 0.39 | 88 | 1009.2 |
| 20260506042803 | 63 | 217 | 8.0 | 22.0 | 0.14 | 0.77 | 0.39 | 88 | 1009.1 |
| 20260506042703 | 63 | 217 | 8.0 | 22.0 | 0.14 | 0.77 | 0.39 | 88 | 1009.1 |
| 20260506042603 | 63 | 217 | 8.0 | 22.0 | 0.14 | 0.78 | 0.39 | 89 | 1009.1 |
| 20260506042503 | 63 | 213 | 8.0 | 22.0 | 0.14 | 0.78 | 0.39 | 89 | 1009.1 |
| 20260506042403 | 63 | 210 | 7.0 | 16.0 | 0.14 | 0.79 | 0.39 | 89 | 1009.2 |
| 20260506042305 | 63 | 209 | 7.0 | 16.0 | 0.14 | 0.79 | 0.39 | 89 | 1009.1 |
| 20260506042203 | 63 | 212 | 7.0 | 18.0 | 0.14 | 0.80 | 0.39 | 89 | 1009.2 |
| 20260506042103 | 63 | 214 | 7.0 | 18.0 | 0.14 | 0.80 | 0.39 | 89 | 1009.2 |
| 20260506042003 | 63 | 214 | 7.0 | 18.0 | 0.14 | 0.80 | 0.39 | 89 | 1009.2 |
| 20260506041903 | 63 | 216 | 7.0 | 18.0 | 0.14 | 0.81 | 0.39 | 89 | 1009.2 |
| 20260506041803 | 63 | 217 | 7.0 | 18.0 | 0.14 | 0.82 | 0.39 | 89 | 1009.1 |
| 20260506041703 | 63 | 216 | 6.0 | 18.0 | 0.14 | 0.82 | 0.39 | 89 | 1009.1 |
| 20260506041603 | 63 | 214 | 6.0 | 18.0 | 0.14 | 0.83 | 0.39 | 89 | 1009.1 |
| 20260506041503 | 63 | 215 | 6.0 | 18.0 | 0.15 | 0.83 | 0.39 | 89 | 1009.2 |
| 20260506041403 | 63 | 216 | 6.0 | 18.0 | 0.15 | 0.83 | 0.39 | 89 | 1009.1 |
| 20260506041303 | 63 | 216 | 5.0 | 18.0 | 0.15 | 0.83 | 0.39 | 89 | 1009.2 |
| 20260506041203 | 62 | 214 | 5.0 | 17.0 | 0.15 | 0.83 | 0.39 | 89 | 1009.1 |
| 20260506041103 | 62 | 213 | 5.0 | 17.0 | 0.15 | 0.83 | 0.39 | 89 | 1009.1 |
| 20260506041003 | 62 | 214 | 5.0 | 17.0 | 0.15 | 0.83 | 0.39 | 89 | 1009.2 |
| 20260506040903 | 62 | 212 | 5.0 | 17.0 | 0.15 | 0.83 | 0.39 | 89 | 1009.2 |
| 20260506040803 | 62 | 213 | 4.0 | 17.0 | 0.15 | 0.83 | 0.39 | 89 | 1009.2 |
| 20260506040703 | 62 | 213 | 4.0 | 17.0 | 0.15 | 0.83 | 0.39 | 89 | 1009.2 |
| 20260506040603 | 62 | 214 | 4.0 | 17.0 | 0.15 | 0.83 | 0.39 | 89 | 1009.2 |
| 20260506040503 | 62 | 213 | 4.0 | 16.0 | 0.15 | 0.83 | 0.39 | 89 | 1009.2 |
| 20260506040403 | 62 | 213 | 4.0 | 16.0 | 0.14 | 0.83 | 0.39 | 89 | 1009.2 |
| 20260506040304 | 62 | 210 | 4.0 | 12.0 | 0.14 | 0.83 | 0.38 | 89 | 1009.2 |
| 20260506040203 | 62 | 212 | 3.0 | 12.0 | 0.14 | 0.83 | 0.38 | 88 | 1009.2 |
| 20260506040003 | 62 | 208 | 3.0 | 12.0 | 0.14 | 0.83 | 0.38 | 88 | 1009.3 |
| 20260506035903 | 62 | 206 | 3.0 | 12.0 | 0.14 | 0.83 | 0.38 | 88 | 1009.3 |
| 20260506035803 | 62 | 203 | 3.0 | 12.0 | 0.14 | 0.83 | 0.38 | 88 | 1009.3 |
| 20260506035703 | 62 | 202 | 3.0 | 12.0 | 0.13 | 0.82 | 0.37 | 88 | 1009.4 |
| 20260506035603 | 62 | 201 | 3.0 | 12.0 | 0.12 | 0.80 | 0.35 | 89 | 1009.4 |
| 20260506035503 | 62 | 201 | 3.0 | 12.0 | 0.11 | 0.80 | 0.35 | 89 | 1009.4 |
| 20260506035403 | 62 | 205 | 3.0 | 11.0 | 0.11 | 0.80 | 0.35 | 89 | 1009.5 |
| 20260506035305 | 62 | 209 | 3.0 | 11.0 | 0.11 | 0.80 | 0.35 | 89 | 1009.5 |
| 20260506035203 | 62 | 208 | 3.0 | 11.0 | 0.11 | 0.80 | 0.35 | 90 | 1009.4 |
| 20260506035103 | 62 | 208 | 4.0 | 11.0 | 0.11 | 0.80 | 0.35 | 90 | 1009.4 |
| 20260506035004 | 62 | 212 | 4.0 | 11.0 | 0.11 | 0.81 | 0.35 | 89 | 1009.3 |
| 20260506034903 | 62 | 213 | 4.0 | 10.0 | 0.11 | 0.81 | 0.35 | 89 | 1009.3 |
| 20260506034804 | 62 | 217 | 4.0 | 10.0 | 0.11 | 0.81 | 0.35 | 89 | 1009.3 |
| 20260506034703 | 62 | 218 | 4.0 | 11.0 | 0.11 | 0.81 | 0.35 | 89 | 1009.3 |
| 20260506034603 | 62 | 217 | 4.0 | 11.0 | 0.10 | 0.80 | 0.34 | 89 | 1009.3 |
| 20260506034503 | 62 | 215 | 4.0 | 11.0 | 0.09 | 0.79 | 0.33 | 88 | 1009.4 |
| 20260506034403 | 62 | 212 | 4.0 | 11.0 | 0.05 | 0.76 | 0.28 | 88 | 1009.5 |
| 20260506034303 | 62 | 210 | 4.0 | 11.0 | 0.02 | 0.72 | 0.26 | 88 | 1009.6 |
| 20260506034203 | 62 | 210 | 4.0 | 12.0 | 0.01 | 0.72 | 0.24 | 88 | 1009.5 |
| 20260506034103 | 62 | 212 | 4.0 | 12.0 | 0.01 | 0.72 | 0.24 | 88 | 1009.4 |
| 20260506034003 | 62 | 209 | 5.0 | 12.0 | 0.01 | 0.73 | 0.24 | 88 | 1009.4 |
| 20260506033903 | 62 | 208 | 5.0 | 12.0 | 0.01 | 0.73 | 0.24 | 88 | 1009.4 |
| 20260506033803 | 62 | 206 | 5.0 | 12.0 | 0.01 | 0.73 | 0.24 | 88 | 1009.3 |
| 20260506033703 | 62 | 204 | 5.0 | 12.0 | 0.01 | 0.73 | 0.24 | 88 | 1009.4 |
| 20260506033603 | 62 | 202 | 5.0 | 15.0 | 0.01 | 0.73 | 0.24 | 87 | 1009.5 |
| 20260506033503 | 62 | 204 | 6.0 | 16.0 | 0.01 | 0.73 | 0.24 | 87 | 1009.5 |
| 20260506033403 | 62 | 204 | 6.0 | 16.0 | 0.01 | 0.73 | 0.24 | 87 | 1009.6 |
| 20260506033303 | 62 | 206 | 6.0 | 16.0 | 0.01 | 0.73 | 0.24 | 87 | 1009.6 |
| 20260506033203 | 62 | 205 | 6.0 | 16.0 | 0.01 | 0.73 | 0.24 | 87 | 1009.6 |
| 20260506033103 | 63 | 206 | 7.0 | 16.0 | 0.01 | 0.73 | 0.24 | 87 | 1009.7 |
| 20260506033004 | 62 | 207 | 7.0 | 16.0 | 0.01 | 0.73 | 0.24 | 87 | 1009.6 |
| 20260506032903 | 63 | 210 | 7.0 | 16.0 | 0.01 | 0.73 | 0.24 | 87 | 1009.6 |
| 20260506032803 | 63 | 208 | 8.0 | 18.0 | 0.01 | 0.73 | 0.24 | 87 | 1009.5 |
| 20260506032703 | 63 | 207 | 8.0 | 18.0 | 0.01 | 0.73 | 0.24 | 87 | 1009.4 |
| 20260506032603 | 63 | 212 | 8.0 | 18.0 | 0.01 | 0.73 | 0.24 | 87 | 1009.5 |
| 20260506032503 | 63 | 209 | 8.0 | 18.0 | 0.01 | 0.73 | 0.24 | 88 | 1009.4 |
| 20260506032403 | 63 | 208 | 8.0 | 18.0 | 0.01 | 0.73 | 0.24 | 88 | 1009.4 |
| 20260506032203 | 63 | 206 | 8.0 | 18.0 | 0.01 | 0.73 | 0.24 | 87 | 1009.5 |
| 20260506032103 | 63 | 204 | 8.0 | 18.0 | 0.01 | 0.73 | 0.24 | 87 | 1009.6 |
| 20260506032003 | 63 | 203 | 8.0 | 18.0 | 0.01 | 0.73 | 0.24 | 88 | 1009.6 |
| 20260506031903 | 63 | 204 | 8.0 | 18.0 | 0.01 | 0.73 | 0.24 | 88 | 1009.6 |
| 20260506031803 | 63 | 205 | 8.0 | 18.0 | 0.01 | 0.73 | 0.24 | 88 | 1009.6 |
| 20260506031703 | 63 | 206 | 8.0 | 18.0 | 0.01 | 0.73 | 0.24 | 88 | 1009.7 |
| 20260506031603 | 63 | 204 | 7.0 | 18.0 | 0.01 | 0.73 | 0.24 | 88 | 1009.7 |
| 20260506031503 | 63 | 203 | 8.0 | 18.0 | 0.00 | 0.72 | 0.24 | 88 | 1009.8 |
| 20260506031403 | 63 | 203 | 8.0 | 18.0 | 0.00 | 0.72 | 0.24 | 88 | 1009.8 |
| 20260506031303 | 63 | 206 | 7.0 | 18.0 | 0.00 | 0.72 | 0.24 | 89 | 1009.8 |
| 20260506031203 | 63 | 207 | 7.0 | 18.0 | 0.01 | 0.72 | 0.24 | 89 | 1009.8 |
| 20260506031103 | 63 | 207 | 7.0 | 18.0 | 0.01 | 0.72 | 0.24 | 89 | 1009.7 |
| 20260506031003 | 63 | 208 | 7.0 | 16.0 | 0.01 | 0.72 | 0.24 | 88 | 1009.8 |
| 20260506030903 | 63 | 204 | 7.0 | 16.0 | 0.01 | 0.72 | 0.24 | 88 | 1009.7 |
| 20260506030803 | 63 | 204 | 7.0 | 16.0 | 0.01 | 0.72 | 0.24 | 88 | 1009.7 |
| 20260506030703 | 63 | 203 | 7.0 | 16.0 | 0.01 | 0.72 | 0.24 | 88 | 1009.7 |
| 20260506030603 | 63 | 201 | 7.0 | 17.0 | 0.01 | 0.72 | 0.24 | 88 | 1009.7 |
| 20260506030503 | 63 | 204 | 7.0 | 17.0 | 0.01 | 0.72 | 0.24 | 88 | 1009.7 |
| 20260506030403 | 63 | 205 | 7.0 | 17.0 | 0.01 | 0.72 | 0.24 | 88 | 1009.8 |
| 20260506030303 | 63 | 204 | 7.0 | 17.0 | 0.01 | 0.72 | 0.24 | 88 | 1009.7 |
| 20260506030203 | 63 | 203 | 7.0 | 17.0 | 0.01 | 0.72 | 0.24 | 88 | 1009.7 |
| 20260506030103 | 62 | 205 | 7.0 | 17.0 | 0.01 | 0.72 | 0.24 | 88 | 1009.8 |
| 20260506030004 | 63 | 204 | 6.0 | 17.0 | 0.01 | 0.72 | 0.24 | 88 | 1009.8 |
| 20260506025903 | 63 | 203 | 6.0 | 17.0 | 0.01 | 0.72 | 0.24 | 88 | 1009.8 |
| 20260506025805 | 62 | 202 | 6.0 | 17.0 | 0.01 | 0.72 | 0.24 | 88 | 1009.9 |
| 20260506025703 | 62 | 204 | 6.0 | 17.0 | 0.02 | 0.72 | 0.24 | 88 | 1010.0 |
| 20260506025603 | 62 | 206 | 6.0 | 16.0 | 0.02 | 0.73 | 0.24 | 88 | 1009.7 |
| 20260506025503 | 62 | 204 | 5.0 | 14.0 | 0.02 | 0.73 | 0.24 | 88 | 1009.8 |
| 20260506025403 | 62 | 206 | 5.0 | 14.0 | 0.02 | 0.73 | 0.24 | 88 | 1009.7 |
| 20260506025305 | 62 | 206 | 5.0 | 15.0 | 0.02 | 0.73 | 0.24 | 88 | 1009.6 |
| 20260506025203 | 62 | 207 | 4.0 | 15.0 | 0.02 | 0.73 | 0.24 | 88 | 1009.6 |
| 20260506025103 | 62 | 206 | 4.0 | 15.0 | 0.02 | 0.73 | 0.24 | 88 | 1009.5 |
| 20260506025004 | 62 | 206 | 3.0 | 15.0 | 0.02 | 0.73 | 0.24 | 88 | 1009.6 |
| 20260506024903 | 62 | 207 | 3.0 | 15.0 | 0.03 | 0.73 | 0.24 | 88 | 1009.5 |
| 20260506024803 | 62 | 208 | 3.0 | 15.0 | 0.04 | 0.73 | 0.24 | 88 | 1009.4 |
| 20260506024703 | 62 | 208 | 2.0 | 15.0 | 0.06 | 0.73 | 0.24 | 88 | 1009.7 |
| 20260506024603 | 62 | 208 | 2.0 | 15.0 | 0.07 | 0.74 | 0.24 | 88 | 1009.6 |
| 20260506024503 | 62 | 209 | 2.0 | 15.0 | 0.07 | 0.74 | 0.24 | 88 | 1009.5 |
| 20260506024403 | 62 | 206 | 1.0 | 15.0 | 0.07 | 0.74 | 0.24 | 88 | 1009.6 |
| 20260506024303 | 61 | 205 | 1.0 | 10.0 | 0.07 | 0.74 | 0.24 | 88 | 1009.4 |
| 20260506024203 | 61 | 202 | 1.0 | 10.0 | 0.07 | 0.74 | 0.24 | 88 | 1009.6 |
| 20260506024103 | 61 | 198 | 1.0 | 10.0 | 0.07 | 0.75 | 0.24 | 88 | 1009.5 |
| 20260506024003 | 61 | 201 | 1.0 | 10.0 | 0.08 | 0.75 | 0.24 | 88 | 1009.6 |
| 20260506023903 | 61 | 205 | 1.0 | 6.0 | 0.08 | 0.75 | 0.24 | 88 | 1009.5 |
| 20260506023804 | 61 | 208 | 1.0 | 5.0 | 0.09 | 0.76 | 0.24 | 88 | 1009.5 |
| 20260506023703 | 61 | 217 | 1.0 | 5.0 | 0.10 | 0.76 | 0.24 | 88 | 1009.4 |
| 20260506023603 | 61 | 229 | 1.0 | 5.0 | 0.11 | 0.76 | 0.24 | 88 | 1009.4 |
| 20260506023503 | 61 | 228 | 1.0 | 8.0 | 0.12 | 0.76 | 0.24 | 89 | 1009.5 |
| 20260506023403 | 61 | 226 | 1.0 | 8.0 | 0.12 | 0.76 | 0.24 | 89 | 1009.4 |
| 20260506023303 | 61 | 236 | 1.0 | 8.0 | 0.12 | 0.76 | 0.24 | 88 | 1009.4 |
| 20260506023203 | 61 | 238 | 1.0 | 8.0 | 0.12 | 0.76 | 0.24 | 88 | 1009.4 |
| 20260506023103 | 61 | 238 | 1.0 | 8.0 | 0.12 | 0.76 | 0.24 | 88 | 1009.3 |
| 20260506023003 | 60 | 244 | 2.0 | 8.0 | 0.12 | 0.77 | 0.24 | 88 | 1009.3 |
| 20260506022903 | 60 | 275 | 2.0 | 8.0 | 0.12 | 0.77 | 0.24 | 89 | 1009.3 |
| 20260506022803 | 60 | 310 | 2.0 | 8.0 | 0.12 | 0.77 | 0.24 | 89 | 1009.2 |
| 20260506022703 | 60 | 323 | 2.0 | 8.0 | 0.12 | 0.78 | 0.24 | 89 | 1009.4 |
| 20260506022603 | 60 | 316 | 2.0 | 8.0 | 0.13 | 0.78 | 0.24 | 89 | 1009.4 |
| 20260506022503 | 60 | 330 | 2.0 | 8.0 | 0.14 | 0.78 | 0.24 | 89 | 1009.5 |
| 20260506022404 | 60 | 335 | 2.0 | 8.0 | 0.16 | 0.78 | 0.24 | 89 | 1009.5 |
| 20260506022305 | 60 | 336 | 2.0 | 8.0 | 0.17 | 0.79 | 0.24 | 89 | 1009.6 |
| 20260506022203 | 60 | 336 | 2.0 | 8.0 | 0.17 | 0.79 | 0.24 | 89 | 1009.6 |
| 20260506022103 | 60 | 336 | 2.0 | 8.0 | 0.17 | 0.80 | 0.24 | 89 | 1009.5 |
| 20260506022003 | 59 | 334 | 1.0 | 8.0 | 0.18 | 0.80 | 0.24 | 89 | 1009.6 |
| 20260506021903 | 59 | 334 | 1.0 | 9.0 | 0.19 | 0.80 | 0.24 | 89 | 1009.6 |
| 20260506021803 | 59 | 335 | 1.0 | 9.0 | 0.19 | 0.80 | 0.24 | 90 | 1009.6 |
| 20260506021703 | 59 | 336 | 1.0 | 9.0 | 0.19 | 0.80 | 0.24 | 89 | 1009.6 |
| 20260506021603 | 59 | 337 | 1.0 | 9.0 | 0.19 | 0.80 | 0.24 | 89 | 1009.5 |
| 20260506021503 | 59 | 339 | 1.0 | 9.0 | 0.19 | 0.80 | 0.24 | 90 | 1009.6 |
| 20260506021403 | 59 | 339 | 0.0 | 9.0 | 0.19 | 0.80 | 0.24 | 90 | 1009.6 |
| 20260506021303 | 59 | 339 | 0.0 | 9.0 | 0.19 | 0.80 | 0.24 | 90 | 1009.6 |
| 20260506021103 | 59 | 338 | 0.0 | 9.0 | 0.18 | 0.80 | 0.23 | 89 | 1009.6 |
| 20260506021003 | 59 | 337 | 0.0 | 9.0 | 0.18 | 0.80 | 0.23 | 90 | 1009.7 |
| 20260506020903 | 59 | 325 | 0.0 | 3.0 | 0.18 | 0.81 | 0.23 | 90 | 1009.8 |
| 20260506020803 | 59 | 288 | 0.0 | 4.0 | 0.18 | 0.81 | 0.23 | 91 | 1009.8 |
| 20260506020703 | 59 | 288 | 0.0 | 4.0 | 0.18 | 0.81 | 0.23 | 90 | 1009.8 |
| 20260506020603 | 59 | 288 | 1.0 | 4.0 | 0.18 | 0.81 | 0.23 | 90 | 1009.9 |
| 20260506020503 | 59 | 288 | 1.0 | 4.0 | 0.18 | 0.82 | 0.23 | 90 | 1009.9 |
| 20260506020404 | 59 | 288 | 1.0 | 4.0 | 0.18 | 0.82 | 0.23 | 91 | 1009.9 |
| 20260506020303 | 59 | 288 | 1.0 | 4.0 | 0.18 | 0.82 | 0.23 | 91 | 1009.8 |
| 20260506020203 | 59 | 288 | 1.0 | 4.0 | 0.18 | 0.83 | 0.23 | 91 | 1009.9 |
| 20260506020103 | 59 | 288 | 1.0 | 4.0 | 0.18 | 0.83 | 0.23 | 91 | 1010.0 |
| 20260506020003 | 59 | 288 | 1.0 | 4.0 | 0.18 | 0.83 | 0.23 | 90 | 1010.0 |
| 20260506015903 | 59 | 287 | 1.0 | 4.0 | 0.18 | 0.83 | 0.23 | 90 | 1010.0 |
| 20260506015803 | 59 | 287 | 1.0 | 4.0 | 0.18 | 0.83 | 0.23 | 91 | 1010.0 |
| 20260506015703 | 59 | 287 | 1.0 | 3.0 | 0.17 | 0.83 | 0.22 | 91 | 1010.1 |
| 20260506015603 | 59 | 287 | 1.0 | 3.0 | 0.17 | 0.83 | 0.22 | 91 | 1010.1 |
| 20260506015503 | 59 | 287 | 1.0 | 3.0 | 0.17 | 0.83 | 0.22 | 91 | 1010.1 |
| 20260506015403 | 59 | 287 | 1.0 | 3.0 | 0.17 | 0.84 | 0.22 | 91 | 1010.1 |
| 20260506015305 | 59 | 287 | 1.0 | 3.0 | 0.17 | 0.84 | 0.22 | 91 | 1010.1 |
| 20260506015203 | 59 | 287 | 1.0 | 3.0 | 0.17 | 0.84 | 0.22 | 91 | 1010.2 |
| 20260506015103 | 59 | 286 | 1.0 | 3.0 | 0.17 | 0.83 | 0.21 | 91 | 1010.2 |
| 20260506015003 | 59 | 281 | 1.0 | 2.0 | 0.17 | 0.84 | 0.21 | 90 | 1010.3 |
| 20260506014903 | 59 | 316 | 1.0 | 4.0 | 0.16 | 0.83 | 0.20 | 90 | 1010.4 |
| 20260506014803 | 59 | 303 | 1.0 | 5.0 | 0.15 | 0.83 | 0.20 | 91 | 1010.4 |
| 20260506014703 | 59 | 265 | 1.0 | 5.0 | 0.13 | 0.81 | 0.18 | 91 | 1010.4 |
| 20260506014603 | 59 | 255 | 1.0 | 5.0 | 0.12 | 0.80 | 0.17 | 91 | 1010.3 |
| 20260506014503 | 59 | 250 | 1.0 | 5.0 | 0.12 | 0.80 | 0.17 | 91 | 1010.3 |
| 20260506014403 | 59 | 249 | 1.0 | 5.0 | 0.12 | 0.80 | 0.17 | 91 | 1010.2 |
| 20260506014303 | 59 | 249 | 1.0 | 5.0 | 0.12 | 0.81 | 0.17 | 91 | 1010.2 |
| 20260506014203 | 59 | 249 | 1.0 | 5.0 | 0.12 | 0.81 | 0.17 | 91 | 1010.2 |
| 20260506014103 | 59 | 249 | 0.0 | 5.0 | 0.12 | 0.81 | 0.17 | 91 | 1010.2 |
| 20260506014003 | 59 | 249 | 0.0 | 5.0 | 0.11 | 0.80 | 0.16 | 91 | 1010.1 |
| 20260506013903 | 60 | 243 | 0.0 | 5.0 | 0.11 | 0.80 | 0.16 | 91 | 1010.0 |
| 20260506013803 | 60 | 232 | 0.0 | 5.0 | 0.10 | 0.80 | 0.15 | 91 | 1010.2 |
| 20260506013703 | 60 | 232 | 0.0 | 4.0 | 0.09 | 0.79 | 0.13 | 91 | 1010.2 |
| 20260506013603 | 60 | 0 | 0.0 | 3.0 | 0.08 | 0.78 | 0.13 | 91 | 1010.3 |
| 20260506013503 | 60 | 0 | 0.0 | 3.0 | 0.07 | 0.77 | 0.12 | 91 | 1010.4 |
| 20260506013403 | 60 | 0 | 0.0 | 0.0 | 0.07 | 0.77 | 0.12 | 91 | 1010.4 |
| 20260506013303 | 60 | 0 | 0.0 | 0.0 | 0.07 | 0.77 | 0.12 | 91 | 1010.4 |
| 20260506013203 | 60 | 0 | 0.0 | 2.0 | 0.07 | 0.77 | 0.12 | 91 | 1010.4 |
| 20260506013103 | 60 | 0 | 0.0 | 2.0 | 0.07 | 0.77 | 0.12 | 91 | 1010.4 |
| 20260506013003 | 60 | 0 | 0.0 | 2.0 | 0.07 | 0.78 | 0.12 | 91 | 1010.4 |
| 20260506012903 | 60 | 0 | 0.0 | 2.0 | 0.07 | 0.78 | 0.12 | 91 | 1010.5 |
| 20260506012803 | 60 | 0 | 0.0 | 2.0 | 0.07 | 0.78 | 0.12 | 91 | 1010.5 |
| 20260506012703 | 60 | 0 | 0.0 | 2.0 | 0.07 | 0.78 | 0.12 | 91 | 1010.5 |
| 20260506012603 | 60 | 0 | 0.0 | 2.0 | 0.06 | 0.77 | 0.11 | 91 | 1010.5 |
| 20260506012503 | 60 | 0 | 0.0 | 2.0 | 0.05 | 0.76 | 0.09 | 91 | 1010.5 |
| 20260506012403 | 60 | 0 | 0.0 | 2.0 | 0.03 | 0.75 | 0.08 | 91 | 1010.7 |
| 20260506012307 | 60 | 0 | 0.0 | 2.0 | 0.02 | 0.74 | 0.07 | 91 | 1010.8 |
| 20260506012203 | 60 | 0 | 0.0 | 1.0 | 0.02 | 0.74 | 0.06 | 91 | 1010.8 |
| 20260506012103 | 60 | 0 | 0.0 | 0.0 | 0.02 | 0.74 | 0.06 | 91 | 1010.7 |
| 20260506012003 | 60 | 0 | 0.0 | 0.0 | 0.01 | 0.73 | 0.06 | 91 | 1010.7 |
| 20260506011903 | 60 | 0 | 0.0 | 0.0 | 0.01 | 0.72 | 0.06 | 91 | 1010.6 |
| 20260506011803 | 60 | 0 | 0.0 | 0.0 | 0.01 | 0.72 | 0.05 | 91 | 1010.4 |
| 20260506011703 | 60 | 0 | 0.0 | 0.0 | 0.01 | 0.73 | 0.05 | 91 | 1010.4 |
| 20260506011603 | 60 | 0 | 0.0 | 0.0 | 0.01 | 0.73 | 0.05 | 91 | 1010.4 |
| 20260506011504 | 60 | 0 | 0.0 | 0.0 | 0.01 | 0.73 | 0.05 | 91 | 1010.5 |
| 20260506011403 | 60 | 0 | 0.0 | 0.0 | 0.01 | 0.73 | 0.05 | 91 | 1010.5 |
| 20260506011303 | 60 | 0 | 0.0 | 0.0 | 0.01 | 0.73 | 0.05 | 91 | 1010.5 |
| 20260506011203 | 60 | 0 | 0.0 | 0.0 | 0.01 | 0.73 | 0.05 | 91 | 1010.5 |
| 20260506011103 | 60 | 0 | 0.0 | 0.0 | 0.01 | 0.73 | 0.05 | 91 | 1010.5 |
| 20260506011003 | 60 | 0 | 0.0 | 0.0 | 0.01 | 0.73 | 0.05 | 91 | 1010.4 |
| 20260506010903 | 60 | 0 | 0.0 | 0.0 | 0.01 | 0.73 | 0.05 | 91 | 1010.5 |
| 20260506010803 | 60 | 0 | 0.0 | 0.0 | 0.01 | 0.74 | 0.05 | 91 | 1010.5 |
| 20260506010703 | 60 | 0 | 0.0 | 0.0 | 0.01 | 0.74 | 0.05 | 91 | 1010.5 |
| 20260506010603 | 60 | 0 | 0.0 | 0.0 | 0.01 | 0.74 | 0.05 | 91 | 1010.6 |
| 20260506010503 | 60 | 0 | 0.0 | 0.0 | 0.01 | 0.74 | 0.05 | 91 | 1010.5 |
| 20260506010403 | 60 | 0 | 0.0 | 0.0 | 0.01 | 0.74 | 0.05 | 91 | 1010.6 |
| 20260506010303 | 60 | 0 | 0.0 | 0.0 | 0.01 | 0.74 | 0.05 | 91 | 1010.6 |
| 20260506010203 | 60 | 0 | 0.0 | 0.0 | 0.01 | 0.74 | 0.05 | 91 | 1010.5 |
| 20260506010103 | 60 | 0 | 0.0 | 0.0 | 0.01 | 0.74 | 0.05 | 91 | 1010.5 |
| 20260506010003 | 60 | 0 | 0.0 | 0.0 | 0.01 | 0.74 | 0.05 | 91 | 1010.5 |
| 20260506005903 | 60 | 0 | 0.0 | 0.0 | 0.01 | 0.75 | 0.05 | 91 | 1010.5 |
| 20260506005803 | 60 | 0 | 0.0 | 0.0 | 0.01 | 0.75 | 0.05 | 91 | 1010.5 |
| 20260506005703 | 60 | 0 | 0.0 | 0.0 | 0.01 | 0.75 | 0.05 | 91 | 1010.5 |
| 20260506005603 | 60 | 0 | 0.0 | 0.0 | 0.01 | 0.75 | 0.05 | 91 | 1010.5 |
| 20260506005503 | 60 | 0 | 0.0 | 0.0 | 0.01 | 0.76 | 0.05 | 91 | 1010.6 |
| 20260506005403 | 60 | 0 | 0.0 | 0.0 | 0.02 | 0.76 | 0.05 | 91 | 1010.5 |
| 20260506005305 | 60 | 0 | 0.0 | 0.0 | 0.02 | 0.76 | 0.05 | 91 | 1010.5 |
| 20260506005203 | 60 | 0 | 0.0 | 0.0 | 0.02 | 0.76 | 0.05 | 91 | 1010.5 |
| 20260506005103 | 60 | 0 | 0.0 | 0.0 | 0.02 | 0.76 | 0.05 | 90 | 1010.5 |
| 20260506005003 | 61 | 0 | 0.0 | 0.0 | 0.02 | 0.76 | 0.05 | 90 | 1010.5 |
| 20260506004903 | 61 | 0 | 0.0 | 0.0 | 0.02 | 0.76 | 0.05 | 90 | 1010.6 |
| 20260506004803 | 61 | 0 | 0.0 | 0.0 | 0.02 | 0.76 | 0.05 | 90 | 1010.6 |
| 20260506004703 | 61 | 0 | 0.0 | 0.0 | 0.02 | 0.76 | 0.05 | 90 | 1010.6 |
| 20260506004604 | 61 | 0 | 0.0 | 0.0 | 0.02 | 0.76 | 0.05 | 90 | 1010.6 |
| 20260506004503 | 61 | 0 | 0.0 | 0.0 | 0.02 | 0.76 | 0.05 | 91 | 1010.6 |
| 20260506004403 | 61 | 0 | 0.0 | 0.0 | 0.02 | 0.76 | 0.05 | 91 | 1010.6 |
| 20260506004303 | 61 | 0 | 0.0 | 0.0 | 0.02 | 0.76 | 0.05 | 90 | 1010.7 |
| 20260506004203 | 61 | 0 | 0.0 | 0.0 | 0.02 | 0.76 | 0.05 | 90 | 1010.8 |
| 20260506004103 | 61 | 0 | 0.0 | 0.0 | 0.02 | 0.76 | 0.05 | 90 | 1010.8 |
| 20260506004003 | 61 | 0 | 0.0 | 0.0 | 0.02 | 0.76 | 0.05 | 90 | 1010.8 |
| 20260506003903 | 61 | 0 | 0.0 | 0.0 | 0.02 | 0.76 | 0.05 | 90 | 1010.9 |
| 20260506003803 | 61 | 0 | 0.0 | 0.0 | 0.02 | 0.76 | 0.05 | 90 | 1010.9 |
| 20260506003703 | 61 | 0 | 0.0 | 0.0 | 0.02 | 0.76 | 0.05 | 90 | 1011.0 |
| 20260506003603 | 61 | 0 | 0.0 | 0.0 | 0.03 | 0.76 | 0.05 | 90 | 1011.0 |
| 20260506003503 | 61 | 0 | 0.0 | 0.0 | 0.03 | 0.76 | 0.05 | 90 | 1011.0 |
| 20260506003403 | 61 | 0 | 0.0 | 0.0 | 0.03 | 0.76 | 0.05 | 90 | 1011.0 |
| 20260506003303 | 61 | 0 | 0.0 | 0.0 | 0.03 | 0.76 | 0.05 | 90 | 1011.0 |
| 20260506003203 | 61 | 0 | 0.0 | 0.0 | 0.03 | 0.76 | 0.05 | 90 | 1011.0 |
| 20260506003103 | 61 | 0 | 0.0 | 0.0 | 0.03 | 0.76 | 0.05 | 90 | 1011.0 |
| 20260506003003 | 61 | 0 | 0.0 | 0.0 | 0.03 | 0.76 | 0.05 | 90 | 1011.0 |
| 20260506002903 | 61 | 0 | 0.0 | 0.0 | 0.03 | 0.76 | 0.05 | 90 | 1011.0 |
| 20260506002803 | 61 | 0 | 0.0 | 0.0 | 0.03 | 0.76 | 0.05 | 90 | 1010.9 |
| 20260506002704 | 61 | 0 | 0.0 | 0.0 | 0.03 | 0.76 | 0.05 | 90 | 1010.9 |
| 20260506002603 | 61 | 0 | 0.0 | 0.0 | 0.03 | 0.76 | 0.05 | 90 | 1010.8 |
| 20260506002503 | 61 | 0 | 0.0 | 0.0 | 0.03 | 0.76 | 0.05 | 90 | 1010.9 |
| 20260506002403 | 61 | 0 | 0.0 | 0.0 | 0.03 | 0.76 | 0.05 | 90 | 1010.9 |
| 20260506002305 | 61 | 0 | 1.0 | 0.0 | 0.03 | 0.76 | 0.05 | 89 | 1010.9 |
| 20260506002203 | 62 | 232 | 1.0 | 2.0 | 0.04 | 0.76 | 0.05 | 89 | 1010.9 |
| 20260506002103 | 62 | 232 | 1.0 | 4.0 | 0.04 | 0.76 | 0.05 | 89 | 1011.0 |
| 20260506002003 | 62 | 230 | 1.0 | 4.0 | 0.04 | 0.76 | 0.05 | 89 | 1011.0 |
| 20260506001903 | 62 | 230 | 1.0 | 4.0 | 0.03 | 0.76 | 0.04 | 89 | 1011.0 |
| 20260506001803 | 62 | 226 | 1.0 | 4.0 | 0.03 | 0.76 | 0.04 | 89 | 1010.9 |
| 20260506001703 | 62 | 221 | 1.0 | 4.0 | 0.03 | 0.76 | 0.04 | 89 | 1010.9 |
| 20260506001603 | 62 | 220 | 1.0 | 4.0 | 0.03 | 0.76 | 0.04 | 89 | 1010.9 |
| 20260506001503 | 62 | 217 | 1.0 | 4.0 | 0.03 | 0.76 | 0.04 | 89 | 1010.9 |
| 20260506001403 | 62 | 217 | 1.0 | 4.0 | 0.03 | 0.76 | 0.04 | 89 | 1010.9 |
| 20260506001303 | 62 | 217 | 1.0 | 4.0 | 0.03 | 0.76 | 0.04 | 89 | 1010.9 |
| 20260506001203 | 62 | 215 | 2.0 | 4.0 | 0.04 | 0.76 | 0.04 | 89 | 1011.0 |
| 20260506001103 | 62 | 210 | 2.0 | 3.0 | 0.04 | 0.76 | 0.04 | 89 | 1011.0 |
| 20260506001003 | 62 | 206 | 2.0 | 3.0 | 0.04 | 0.76 | 0.04 | 89 | 1011.0 |
| 20260506000903 | 62 | 206 | 3.0 | 3.0 | 0.04 | 0.76 | 0.04 | 89 | 1011.1 |
| 20260506000803 | 62 | 206 | 3.0 | 4.0 | 0.04 | 0.76 | 0.04 | 89 | 1011.0 |
| 20260506000703 | 62 | 210 | 4.0 | 7.0 | 0.04 | 0.76 | 0.04 | 89 | 1011.0 |
| 20260506000603 | 62 | 215 | 4.0 | 8.0 | 0.04 | 0.76 | 0.04 | 89 | 1011.0 |
| 20260506000503 | 62 | 216 | 4.0 | 8.0 | 0.04 | 0.76 | 0.04 | 89 | 1011.0 |
| 20260506000403 | 62 | 217 | 5.0 | 8.0 | 0.04 | 0.76 | 0.04 | 89 | 1010.9 |
| 20260506000303 | 62 | 215 | 5.0 | 8.0 | 0.04 | 0.76 | 0.04 | 89 | 1010.9 |
| 20260506000204 | 62 | 216 | 5.0 | 8.0 | 0.04 | 0.76 | 0.04 | 89 | 1010.9 |
| 20260506000103 | 62 | 218 | 6.0 | 9.0 | 0.04 | 0.76 | 0.04 | 89 | 1010.9 |
| 20260506000004 | 62 | 220 | 6.0 | 9.0 | 0.04 | 0.76 | 0.04 | 89 | 1011.0 |
| 20260505235903 | 62 | 222 | 6.0 | 15.0 | 0.04 | 0.76 | 0.04 | 89 | 1011.1 |
| 20260505235803 | 62 | 222 | 6.0 | 15.0 | 0.04 | 0.76 | 0.04 | 89 | 1011.1 |
| 20260505235704 | 62 | 221 | 6.0 | 15.0 | 0.04 | 0.76 | 0.04 | 90 | 1011.1 |
| 20260505235603 | 62 | 221 | 6.0 | 15.0 | 0.04 | 0.76 | 0.04 | 90 | 1011.2 |
| 20260505235503 | 62 | 221 | 6.0 | 15.0 | 0.04 | 0.76 | 0.04 | 90 | 1011.3 |
| 20260505235404 | 62 | 222 | 6.0 | 15.0 | 0.03 | 0.75 | 0.03 | 90 | 1011.3 |
| 20260505235305 | 62 | 223 | 7.0 | 15.0 | 0.03 | 0.75 | 0.03 | 90 | 1011.3 |
| 20260505235203 | 62 | 224 | 7.0 | 15.0 | 0.03 | 0.75 | 0.03 | 90 | 1011.3 |
| 20260505235103 | 62 | 224 | 7.0 | 15.0 | 0.03 | 0.75 | 0.03 | 90 | 1011.3 |
| 20260505235003 | 62 | 222 | 6.0 | 15.0 | 0.03 | 0.75 | 0.03 | 90 | 1011.3 |
| 20260505234903 | 62 | 222 | 6.0 | 14.0 | 0.02 | 0.74 | 0.02 | 90 | 1011.3 |
| 20260505234803 | 62 | 221 | 6.0 | 14.0 | 0.02 | 0.74 | 0.02 | 90 | 1011.4 |
| 20260505234703 | 62 | 221 | 6.0 | 14.0 | 0.02 | 0.74 | 0.02 | 90 | 1011.4 |
| 20260505234603 | 62 | 221 | 6.0 | 14.0 | 0.02 | 0.74 | 0.02 | 90 | 1011.4 |
| 20260505234503 | 62 | 220 | 6.0 | 14.0 | 0.02 | 0.74 | 0.02 | 90 | 1011.4 |
| 20260505234403 | 62 | 220 | 5.0 | 14.0 | 0.02 | 0.74 | 0.02 | 90 | 1011.3 |
| 20260505234303 | 62 | 218 | 5.0 | 14.0 | 0.02 | 0.74 | 0.02 | 90 | 1011.4 |
| 20260505234203 | 62 | 215 | 4.0 | 14.0 | 0.02 | 0.74 | 0.02 | 90 | 1011.3 |
| 20260505234103 | 62 | 213 | 3.0 | 14.0 | 0.02 | 0.74 | 0.02 | 90 | 1011.3 |
| 20260505234003 | 62 | 212 | 3.0 | 14.0 | 0.02 | 0.74 | 0.02 | 90 | 1011.4 |
| 20260505233903 | 62 | 211 | 2.0 | 14.0 | 0.02 | 0.74 | 0.02 | 90 | 1011.3 |
| 20260505233803 | 62 | 211 | 2.0 | 14.0 | 0.02 | 0.74 | 0.02 | 90 | 1011.3 |
| 20260505233703 | 62 | 210 | 1.0 | 14.0 | 0.02 | 0.74 | 0.02 | 91 | 1011.3 |
| 20260505233603 | 62 | 209 | 1.0 | 14.0 | 0.02 | 0.73 | 0.02 | 91 | 1011.3 |
| 20260505233503 | 62 | 208 | 1.0 | 14.0 | 0.02 | 0.73 | 0.02 | 91 | 1011.4 |
| 20260505233403 | 63 | 206 | 0.0 | 13.0 | 0.02 | 0.73 | 0.02 | 91 | 1011.3 |
| 20260505233303 | 62 | 206 | 0.0 | 13.0 | 0.02 | 0.73 | 0.02 | 92 | 1011.4 |
| 20260505233203 | 62 | 211 | 0.0 | 13.0 | 0.02 | 0.73 | 0.02 | 92 | 1011.3 |
| 20260505233103 | 62 | 0 | 0.0 | 9.0 | 0.02 | 0.73 | 0.02 | 92 | 1011.3 |
| 20260505233003 | 62 | 0 | 0.0 | 9.0 | 0.02 | 0.73 | 0.02 | 92 | 1011.3 |
| 20260505232903 | 62 | 0 | 0.0 | 9.0 | 0.02 | 0.73 | 0.02 | 92 | 1011.3 |
| 20260505232803 | 62 | 0 | 0.0 | 9.0 | 0.02 | 0.73 | 0.02 | 92 | 1011.3 |
| 20260505232703 | 61 | 0 | 0.0 | 9.0 | 0.02 | 0.73 | 0.02 | 92 | 1011.3 |
| 20260505232603 | 61 | 0 | 0.0 | 9.0 | 0.02 | 0.73 | 0.02 | 91 | 1011.3 |
| 20260505232503 | 61 | 0 | 0.0 | 9.0 | 0.02 | 0.73 | 0.02 | 91 | 1011.3 |
| 20260505232403 | 61 | 0 | 0.0 | 0.0 | 0.02 | 0.73 | 0.02 | 90 | 1011.4 |
| 20260505232305 | 61 | 0 | 0.0 | 0.0 | 0.02 | 0.73 | 0.02 | 90 | 1011.3 |
| 20260505232203 | 61 | 0 | 0.0 | 0.0 | 0.01 | 0.72 | 0.01 | 90 | 1011.5 |
| 20260505232103 | 61 | 0 | 0.0 | 0.0 | 0.01 | 0.72 | 0.01 | 90 | 1011.4 |
| 20260505232003 | 61 | 0 | 0.0 | 0.0 | 0.01 | 0.72 | 0.01 | 91 | 1011.4 |
| 20260505231903 | 60 | 0 | 0.0 | 0.0 | 0.01 | 0.72 | 0.01 | 90 | 1011.4 |
| 20260505231803 | 60 | 0 | 0.0 | 0.0 | 0.01 | 0.72 | 0.01 | 90 | 1011.3 |
| 20260505231703 | 60 | 0 | 0.0 | 0.0 | 0.01 | 0.72 | 0.01 | 90 | 1011.4 |
| 20260505231603 | 60 | 0 | 0.0 | 0.0 | 0.01 | 0.72 | 0.01 | 90 | 1011.4 |
| 20260505231503 | 60 | 0 | 0.0 | 0.0 | 0.01 | 0.72 | 0.01 | 90 | 1011.5 |
| 20260505231403 | 60 | 0 | 0.0 | 0.0 | 0.01 | 0.72 | 0.01 | 90 | 1011.6 |
| 20260505231003 | 60 | 0 | 0.0 | 0.0 | 0.00 | 0.72 | 0.00 | 89 | 1011.7 |
| 20260505230903 | 60 | 0 | 0.0 | 0.0 | 0.00 | 0.72 | 0.00 | 89 | 1011.8 |
| 20260505230803 | 60 | 0 | 0.0 | 0.0 | 0.00 | 0.72 | 0.00 | 89 | 1011.8 |
| 20260505230703 | 60 | 0 | 0.0 | 0.0 | 0.00 | 0.72 | 0.00 | 89 | 1011.8 |
| 20260505230604 | 60 | 0 | 0.0 | 0.0 | 0.00 | 0.72 | 0.00 | 89 | 1011.8 |
| 20260505230503 | 60 | 0 | 0.0 | 0.0 | 0.00 | 0.72 | 0.00 | 89 | 1011.8 |
| 20260505230403 | 60 | 0 | 0.0 | 0.0 | 0.00 | 0.72 | 0.00 | 89 | 1011.9 |
| 20260505230303 | 60 | 0 | 0.0 | 0.0 | 0.00 | 0.72 | 0.00 | 89 | 1011.9 |
| 20260505230203 | 60 | 0 | 0.0 | 0.0 | 0.00 | 0.72 | 0.00 | 89 | 1011.9 |
| 20260505230108 | 60 | 0 | 0.0 | 0.0 | 0.00 | 0.72 | 0.00 | 89 | 1011.9 |
| 20260505230003 | 60 | 0 | 0.0 | 0.0 | 0.00 | 0.72 | 0.00 | 89 | 1011.9 |
| 20260505225903 | 60 | 0 | 0.0 | 0.0 | 0.00 | 0.72 | 0.00 | 89 | 1011.9 |
| 20260505225803 | 60 | 0 | 0.0 | 0.0 | 0.00 | 0.72 | 0.00 | 89 | 1011.9 |
| 20260505225704 | 60 | 0 | 0.0 | 0.0 | 0.00 | 0.72 | 0.00 | 89 | 1011.9 |
| 20260505225603 | 60 | 0 | 0.0 | 0.0 | 0.00 | 0.72 | 0.00 | 89 | 1012.0 |
| 20260505225504 | 60 | 0 | 0.0 | 0.0 | 0.00 | 0.72 | 0.00 | 89 | 1012.0 |
| 20260505225403 | 60 | 0 | 0.0 | 0.0 | 0.00 | 0.72 | 0.00 | 89 | 1012.0 |
| 20260505225305 | 60 | 0 | 0.0 | 0.0 | 0.00 | 0.72 | 0.00 | 88 | 1012.0 |
| 20260505225203 | 60 | 0 | 0.0 | 0.0 | 0.00 | 0.72 | 0.00 | 88 | 1011.9 |
| 20260505225103 | 60 | 0 | 0.0 | 0.0 | 0.00 | 0.72 | 0.00 | 88 | 1011.9 |
| 20260505225003 | 60 | 0 | 0.0 | 0.0 | 0.00 | 0.72 | 0.00 | 88 | 1011.9 |
| 20260505224903 | 60 | 0 | 0.0 | 0.0 | 0.00 | 0.72 | 0.00 | 88 | 1012.0 |
| 20260505224803 | 60 | 0 | 0.0 | 0.0 | 0.00 | 0.72 | 0.00 | 88 | 1012.1 |
| 20260505224703 | 60 | 0 | 0.0 | 0.0 | 0.00 | 0.72 | 0.00 | 89 | 1012.1 |
| 20260505224603 | 60 | 0 | 0.0 | 0.0 | 0.00 | 0.72 | 0.00 | 88 | 1012.2 |
| 20260505224503 | 60 | 0 | 0.0 | 0.0 | 0.00 | 0.72 | 0.00 | 88 | 1012.2 |
| 20260505224403 | 60 | 0 | 0.0 | 0.0 | 0.00 | 0.72 | 0.00 | 89 | 1012.2 |
| 20260505224303 | 60 | 0 | 0.0 | 0.0 | 0.00 | 0.72 | 0.00 | 89 | 1012.2 |
| 20260505224203 | 60 | 0 | 0.0 | 0.0 | 0.00 | 0.72 | 0.00 | 89 | 1012.2 |
| 20260505224103 | 60 | 0 | 0.0 | 0.0 | 0.00 | 0.72 | 0.00 | 89 | 1012.2 |
| 20260505224003 | 60 | 0 | 0.0 | 0.0 | 0.00 | 0.72 | 0.00 | 89 | 1012.3 |
| 20260505223903 | 60 | 0 | 0.0 | 0.0 | 0.00 | 0.72 | 0.00 | 89 | 1012.3 |
| 20260505223803 | 60 | 0 | 0.0 | 0.0 | 0.00 | 0.72 | 0.00 | 89 | 1012.3 |
| 20260505223703 | 60 | 0 | 0.0 | 0.0 | 0.00 | 0.72 | 0.00 | 89 | 1012.3 |
| 20260505223603 | 60 | 0 | 0.0 | 0.0 | 0.00 | 0.72 | 0.00 | 89 | 1012.4 |
| 20260505223503 | 60 | 0 | 0.0 | 0.0 | 0.00 | 0.72 | 0.00 | 89 | 1012.4 |
| 20260505223403 | 60 | 0 | 0.0 | 0.0 | 0.00 | 0.72 | 0.00 | 89 | 1012.4 |
| 20260505223303 | 60 | 0 | 0.0 | 0.0 | 0.00 | 0.72 | 0.00 | 89 | 1012.4 |
| 20260505223203 | 60 | 0 | 0.0 | 0.0 | 0.00 | 0.72 | 0.00 | 89 | 1012.4 |
| 20260505223103 | 60 | 0 | 0.0 | 0.0 | 0.00 | 0.72 | 0.00 | 89 | 1012.4 |
| 20260505223003 | 60 | 0 | 0.0 | 0.0 | 0.00 | 0.72 | 0.00 | 89 | 1012.3 |
| 20260505222904 | 60 | 0 | 0.0 | 0.0 | 0.00 | 0.72 | 0.00 | 89 | 1012.4 |
| 20260505222803 | 59 | 0 | 0.0 | 0.0 | 0.00 | 0.72 | 0.00 | 89 | 1012.4 |
| 20260505222703 | 59 | 0 | 0.0 | 0.0 | 0.00 | 0.72 | 0.00 | 89 | 1012.4 |
| 20260505222603 | 59 | 0 | 0.0 | 0.0 | 0.00 | 0.72 | 0.00 | 89 | 1012.4 |
| 20260505222506 | 59 | 0 | 0.0 | 0.0 | 0.00 | 0.72 | 0.00 | 89 | 1012.5 |
| 20260505222403 | 59 | 0 | 0.0 | 0.0 | 0.00 | 0.72 | 0.00 | 89 | 1012.5 |
| 20260505222305 | 59 | 0 | 0.0 | 0.0 | 0.00 | 0.72 | 0.00 | 89 | 1012.5 |
| 20260505222203 | 59 | 0 | 0.0 | 0.0 | 0.00 | 0.72 | 0.00 | 89 | 1012.5 |
| 20260505222103 | 59 | 0 | 0.0 | 0.0 | 0.00 | 0.72 | 0.00 | 89 | 1012.5 |
| 20260505222003 | 59 | 0 | 0.0 | 0.0 | 0.00 | 0.72 | 0.00 | 89 | 1012.5 |
| 20260505221903 | 59 | 0 | 0.0 | 0.0 | 0.00 | 0.72 | 0.00 | 89 | 1012.5 |
| 20260505221803 | 59 | 0 | 0.0 | 0.0 | 0.00 | 0.72 | 0.00 | 89 | 1012.5 |
| 20260505221703 | 59 | 0 | 0.0 | 0.0 | 0.00 | 0.72 | 0.00 | 89 | 1012.5 |
| 20260505221603 | 59 | 0 | 0.0 | 0.0 | 0.00 | 0.72 | 0.00 | 89 | 1012.5 |
| 20260505221504 | 59 | 0 | 0.0 | 0.0 | 0.00 | 0.72 | 0.00 | 89 | 1012.5 |
| 20260505221403 | 59 | 0 | 0.0 | 0.0 | 0.00 | 0.72 | 0.00 | 89 | 1012.6 |
| 20260505221303 | 59 | 0 | 0.0 | 0.0 | 0.00 | 0.72 | 0.00 | 89 | 1012.6 |
| 20260505221203 | 59 | 0 | 0.0 | 0.0 | 0.00 | 0.72 | 0.00 | 89 | 1012.6 |
| 20260505221103 | 59 | 0 | 0.0 | 0.0 | 0.00 | 0.72 | 0.00 | 89 | 1012.5 |
| 20260505221003 | 59 | 0 | 0.0 | 0.0 | 0.00 | 0.72 | 0.00 | 89 | 1012.5 |
| 20260505220903 | 59 | 0 | 0.0 | 0.0 | 0.00 | 0.72 | 0.00 | 89 | 1012.5 |
| 20260505220803 | 59 | 0 | 0.0 | 0.0 | 0.00 | 0.72 | 0.00 | 89 | 1012.5 |
| 20260505220703 | 59 | 0 | 0.0 | 0.0 | 0.00 | 0.72 | 0.00 | 89 | 1012.5 |
| 20260505220603 | 59 | 0 | 0.0 | 0.0 | 0.00 | 0.72 | 0.00 | 89 | 1012.5 |
| 20260505220503 | 59 | 0 | 0.0 | 0.0 | 0.00 | 0.72 | 0.00 | 89 | 1012.5 |
| 20260505220403 | 59 | 0 | 0.0 | 0.0 | 0.00 | 0.72 | 0.00 | 89 | 1012.5 |
| 20260505220303 | 59 | 0 | 0.0 | 0.0 | 0.00 | 0.72 | 0.00 | 89 | 1012.5 |
| 20260505220203 | 59 | 0 | 0.0 | 0.0 | 0.00 | 0.72 | 0.00 | 89 | 1012.4 |
| 20260505220103 | 59 | 0 | 0.0 | 0.0 | 0.00 | 0.72 | 0.00 | 89 | 1012.5 |
| 20260505220021 | 59 | 0 | 0.0 | 0.0 | 0.00 | 0.72 | 0.00 | 89 | 1012.4 |
| 20260505215903 | 59 | 0 | 0.0 | 0.0 | 0.00 | 0.72 | 0.72 | 89 | 1012.4 |
| 20260505215803 | 59 | 0 | 0.0 | 0.0 | 0.00 | 0.72 | 0.72 | 89 | 1012.4 |
| 20260505215703 | 59 | 0 | 0.0 | 0.0 | 0.00 | 0.72 | 0.72 | 89 | 1012.4 |
| 20260505215603 | 59 | 0 | 0.0 | 0.0 | 0.00 | 0.72 | 0.72 | 89 | 1012.4 |
| 20260505215503 | 58 | 0 | 0.0 | 0.0 | 0.00 | 0.72 | 0.72 | 89 | 1012.4 |
| 20260505215403 | 58 | 0 | 0.0 | 0.0 | 0.00 | 0.72 | 0.72 | 89 | 1012.5 |
| 20260505215305 | 58 | 0 | 0.0 | 0.0 | 0.00 | 0.72 | 0.72 | 89 | 1012.4 |
| 20260505215203 | 58 | 0 | 0.0 | 0.0 | 0.00 | 0.72 | 0.72 | 89 | 1012.5 |
| 20260505215103 | 58 | 0 | 0.0 | 0.0 | 0.00 | 0.72 | 0.72 | 89 | 1012.5 |
| 20260505215003 | 58 | 0 | 0.0 | 0.0 | 0.00 | 0.72 | 0.72 | 89 | 1012.6 |
| 20260505214903 | 58 | 0 | 0.0 | 0.0 | 0.00 | 0.72 | 0.72 | 89 | 1012.6 |
| 20260505214803 | 58 | 0 | 0.0 | 0.0 | 0.00 | 0.72 | 0.72 | 89 | 1012.5 |
| 20260505214703 | 58 | 0 | 0.0 | 0.0 | 0.00 | 0.72 | 0.72 | 89 | 1012.5 |
| 20260505214603 | 58 | 0 | 0.0 | 0.0 | 0.00 | 0.72 | 0.72 | 89 | 1012.6 |
| 20260505214503 | 58 | 0 | 0.0 | 0.0 | 0.00 | 0.72 | 0.72 | 89 | 1012.6 |
| 20260505214403 | 58 | 0 | 0.0 | 0.0 | 0.00 | 0.72 | 0.72 | 89 | 1012.6 |
| 20260505214303 | 58 | 0 | 0.0 | 0.0 | 0.00 | 0.72 | 0.72 | 89 | 1012.6 |
| 20260505214203 | 58 | 0 | 0.0 | 0.0 | 0.00 | 0.72 | 0.72 | 89 | 1012.6 |
| 20260505214103 | 58 | 0 | 0.0 | 0.0 | 0.00 | 0.72 | 0.72 | 89 | 1012.6 |
| 20260505214003 | 58 | 0 | 0.0 | 0.0 | 0.00 | 0.72 | 0.72 | 89 | 1012.5 |
| 20260505213904 | 58 | 0 | 0.0 | 0.0 | 0.00 | 0.72 | 0.72 | 89 | 1012.6 |
| 20260505213803 | 58 | 0 | 0.0 | 0.0 | 0.00 | 0.72 | 0.72 | 89 | 1012.7 |
| 20260505213703 | 58 | 0 | 0.0 | 0.0 | 0.00 | 0.72 | 0.72 | 89 | 1012.7 |
| 20260505213603 | 58 | 0 | 0.0 | 0.0 | 0.00 | 0.72 | 0.72 | 89 | 1012.7 |
| 20260505213503 | 58 | 0 | 0.0 | 0.0 | 0.00 | 0.72 | 0.72 | 89 | 1012.7 |
| 20260505213403 | 58 | 0 | 0.0 | 0.0 | 0.00 | 0.72 | 0.72 | 89 | 1012.8 |
| 20260505213303 | 58 | 0 | 0.0 | 0.0 | 0.00 | 0.72 | 0.72 | 89 | 1012.8 |
| 20260505213203 | 58 | 0 | 0.0 | 0.0 | 0.00 | 0.72 | 0.72 | 89 | 1012.8 |
| 20260505213103 | 58 | 0 | 0.0 | 0.0 | 0.00 | 0.72 | 0.72 | 89 | 1012.8 |
| 20260505213003 | 58 | 0 | 0.0 | 0.0 | 0.00 | 0.72 | 0.72 | 89 | 1012.8 |
| 20260505212903 | 58 | 0 | 0.0 | 0.0 | 0.00 | 0.72 | 0.72 | 89 | 1012.8 |
| 20260505212803 | 58 | 0 | 0.0 | 0.0 | 0.00 | 0.72 | 0.72 | 89 | 1012.9 |
| 20260505212703 | 58 | 0 | 0.0 | 0.0 | 0.00 | 0.72 | 0.72 | 89 | 1012.8 |
| 20260505212603 | 58 | 0 | 0.0 | 0.0 | 0.00 | 0.72 | 0.72 | 89 | 1012.9 |
| 20260505212503 | 58 | 0 | 0.0 | 0.0 | 0.00 | 0.72 | 0.72 | 89 | 1012.8 |
| 20260505212403 | 59 | 0 | 0.0 | 0.0 | 0.00 | 0.72 | 0.72 | 89 | 1012.8 |
| 20260505212305 | 59 | 0 | 0.0 | 0.0 | 0.00 | 0.72 | 0.72 | 89 | 1012.8 |
| 20260505212203 | 59 | 0 | 0.0 | 0.0 | 0.00 | 0.72 | 0.72 | 89 | 1012.9 |
| 20260505212103 | 59 | 0 | 0.0 | 0.0 | 0.00 | 0.72 | 0.72 | 89 | 1012.9 |
| 20260505212003 | 59 | 0 | 0.0 | 0.0 | 0.00 | 0.72 | 0.72 | 89 | 1012.9 |
| 20260505211903 | 59 | 0 | 0.0 | 0.0 | 0.00 | 0.72 | 0.72 | 89 | 1012.8 |
| 20260505211803 | 59 | 0 | 0.0 | 0.0 | 0.00 | 0.72 | 0.72 | 89 | 1012.8 |
| 20260505211703 | 59 | 0 | 0.0 | 0.0 | 0.00 | 0.72 | 0.72 | 89 | 1012.8 |
| 20260505211603 | 59 | 0 | 0.0 | 0.0 | 0.00 | 0.72 | 0.72 | 89 | 1012.8 |
| 20260505211504 | 59 | 0 | 0.0 | 0.0 | 0.00 | 0.72 | 0.72 | 89 | 1012.8 |
| 20260505211403 | 59 | 0 | 0.0 | 0.0 | 0.00 | 0.72 | 0.72 | 89 | 1012.8 |
| 20260505211303 | 59 | 0 | 0.0 | 0.0 | 0.00 | 0.72 | 0.72 | 89 | 1012.8 |
| 20260505211203 | 59 | 0 | 0.0 | 0.0 | 0.00 | 0.72 | 0.72 | 89 | 1012.8 |
| 20260505211103 | 59 | 0 | 0.0 | 0.0 | 0.00 | 0.72 | 0.72 | 89 | 1012.9 |
| 20260505211003 | 59 | 0 | 0.0 | 0.0 | 0.00 | 0.72 | 0.72 | 89 | 1012.8 |
| 20260505210903 | 59 | 0 | 0.0 | 0.0 | 0.00 | 0.72 | 0.72 | 89 | 1012.8 |
| 20260505210803 | 59 | 0 | 0.0 | 0.0 | 0.00 | 0.72 | 0.72 | 89 | 1012.8 |
| 20260505210703 | 59 | 0 | 0.0 | 0.0 | 0.00 | 0.72 | 0.72 | 89 | 1012.8 |
| 20260505210603 | 59 | 0 | 0.0 | 0.0 | 0.00 | 0.72 | 0.72 | 89 | 1012.8 |
| 20260505210503 | 59 | 0 | 0.0 | 0.0 | 0.00 | 0.72 | 0.72 | 89 | 1012.7 |
| 20260505210403 | 59 | 0 | 0.0 | 0.0 | 0.00 | 0.72 | 0.72 | 89 | 1012.8 |
| 20260505210303 | 59 | 0 | 0.0 | 0.0 | 0.00 | 0.72 | 0.72 | 89 | 1012.8 |
| 20260505210203 | 58 | 0 | 0.0 | 0.0 | 0.00 | 0.72 | 0.72 | 89 | 1012.8 |
| 20260505210103 | 58 | 0 | 0.0 | 0.0 | 0.00 | 0.72 | 0.72 | 89 | 1012.8 |
| 20260505210003 | 58 | 0 | 0.0 | 0.0 | 0.00 | 0.72 | 0.72 | 89 | 1012.9 |
| 20260505205903 | 58 | 0 | 0.0 | 0.0 | 0.00 | 0.72 | 0.72 | 89 | 1012.9 |
| 20260505205803 | 58 | 0 | 0.0 | 0.0 | 0.00 | 0.72 | 0.72 | 89 | 1012.9 |
| 20260505205703 | 58 | 0 | 0.0 | 0.0 | 0.00 | 0.72 | 0.72 | 89 | 1012.9 |
| 20260505205603 | 58 | 0 | 0.0 | 0.0 | 0.00 | 0.72 | 0.72 | 89 | 1012.9 |
| 20260505205503 | 58 | 0 | 0.0 | 0.0 | 0.00 | 0.72 | 0.72 | 89 | 1012.9 |
| 20260505205403 | 58 | 0 | 0.0 | 0.0 | 0.00 | 0.72 | 0.72 | 89 | 1013.0 |
| 20260505205305 | 58 | 0 | 0.0 | 0.0 | 0.00 | 0.72 | 0.72 | 89 | 1013.0 |
| 20260505205203 | 58 | 0 | 0.0 | 0.0 | 0.00 | 0.72 | 0.72 | 89 | 1013.0 |
| 20260505205103 | 58 | 0 | 0.0 | 0.0 | 0.00 | 0.72 | 0.72 | 89 | 1013.0 |
| 20260505205003 | 58 | 0 | 0.0 | 0.0 | 0.00 | 0.72 | 0.72 | 89 | 1013.0 |
| 20260505204903 | 58 | 0 | 0.0 | 0.0 | 0.00 | 0.72 | 0.72 | 89 | 1013.0 |
| 20260505204803 | 58 | 0 | 0.0 | 0.0 | 0.00 | 0.72 | 0.72 | 89 | 1013.0 |
| 20260505204703 | 58 | 0 | 0.0 | 0.0 | 0.00 | 0.72 | 0.72 | 89 | 1013.0 |
| 20260505204603 | 58 | 0 | 0.0 | 0.0 | 0.00 | 0.72 | 0.72 | 89 | 1013.1 |
| 20260505204503 | 58 | 0 | 0.0 | 0.0 | 0.00 | 0.72 | 0.72 | 88 | 1013.1 |
| 20260505204403 | 58 | 0 | 0.0 | 0.0 | 0.00 | 0.72 | 0.72 | 88 | 1013.2 |
| 20260505204303 | 58 | 0 | 0.0 | 0.0 | 0.00 | 0.72 | 0.72 | 89 | 1013.2 |
| 20260505204203 | 58 | 0 | 0.0 | 0.0 | 0.00 | 0.72 | 0.72 | 89 | 1013.1 |
| 20260505204103 | 58 | 0 | 0.0 | 0.0 | 0.00 | 0.72 | 0.72 | 89 | 1013.2 |
| 20260505204003 | 58 | 0 | 0.0 | 0.0 | 0.00 | 0.72 | 0.72 | 89 | 1013.2 |
| 20260505203903 | 58 | 0 | 0.0 | 0.0 | 0.00 | 0.72 | 0.72 | 89 | 1013.2 |
| 20260505203803 | 58 | 0 | 0.0 | 0.0 | 0.00 | 0.72 | 0.72 | 89 | 1013.2 |
| 20260505203703 | 58 | 0 | 0.0 | 0.0 | 0.00 | 0.72 | 0.72 | 89 | 1013.2 |
| 20260505203603 | 58 | 0 | 0.0 | 0.0 | 0.00 | 0.72 | 0.72 | 89 | 1013.2 |
| 20260505203503 | 58 | 0 | 0.0 | 0.0 | 0.00 | 0.72 | 0.72 | 89 | 1013.2 |
| 20260505203403 | 58 | 0 | 0.0 | 0.0 | 0.00 | 0.72 | 0.72 | 89 | 1013.1 |
| 20260505203303 | 58 | 0 | 0.0 | 0.0 | 0.00 | 0.72 | 0.72 | 89 | 1013.1 |
| 20260505203203 | 58 | 0 | 0.0 | 0.0 | 0.00 | 0.72 | 0.72 | 89 | 1013.2 |
| 20260505203103 | 58 | 0 | 0.0 | 0.0 | 0.00 | 0.72 | 0.72 | 89 | 1013.2 |
| 20260505203003 | 58 | 0 | 0.0 | 0.0 | 0.00 | 0.72 | 0.72 | 89 | 1013.2 |
| 20260505202903 | 58 | 0 | 0.0 | 0.0 | 0.00 | 0.72 | 0.72 | 89 | 1013.2 |
| 20260505202803 | 58 | 0 | 0.0 | 0.0 | 0.00 | 0.72 | 0.72 | 89 | 1013.2 |
| 20260505202703 | 58 | 0 | 0.0 | 0.0 | 0.00 | 0.72 | 0.72 | 89 | 1013.2 |
| 20260505202603 | 58 | 0 | 0.0 | 0.0 | 0.00 | 0.72 | 0.72 | 89 | 1013.2 |
| 20260505202503 | 58 | 0 | 0.0 | 0.0 | 0.00 | 0.72 | 0.72 | 89 | 1013.2 |
| 20260505202403 | 58 | 0 | 0.0 | 0.0 | 0.00 | 0.72 | 0.72 | 89 | 1013.2 |
| 20260505202306 | 58 | 0 | 0.0 | 0.0 | 0.00 | 0.72 | 0.72 | 88 | 1013.2 |
| 20260505202203 | 58 | 0 | 0.0 | 0.0 | 0.00 | 0.72 | 0.72 | 88 | 1013.2 |
| 20260505202103 | 58 | 0 | 0.0 | 0.0 | 0.00 | 0.72 | 0.72 | 88 | 1013.2 |
| 20260505202004 | 58 | 0 | 0.0 | 0.0 | 0.00 | 0.72 | 0.72 | 88 | 1013.2 |
| 20260505201903 | 58 | 0 | 0.0 | 0.0 | 0.00 | 0.72 | 0.72 | 88 | 1013.2 |
| 20260505201803 | 58 | 0 | 0.0 | 0.0 | 0.00 | 0.72 | 0.72 | 88 | 1013.3 |
| 20260505201703 | 58 | 0 | 0.0 | 0.0 | 0.00 | 0.72 | 0.72 | 88 | 1013.3 |
| 20260505201603 | 58 | 0 | 0.0 | 0.0 | 0.00 | 0.72 | 0.72 | 88 | 1013.3 |
| 20260505201503 | 58 | 0 | 0.0 | 0.0 | 0.00 | 0.72 | 0.72 | 88 | 1013.3 |
| 20260505201403 | 58 | 0 | 0.0 | 0.0 | 0.00 | 0.72 | 0.72 | 88 | 1013.3 |
| 20260505201303 | 58 | 0 | 0.0 | 0.0 | 0.00 | 0.72 | 0.72 | 88 | 1013.3 |
| 20260505201203 | 58 | 0 | 0.0 | 0.0 | 0.00 | 0.72 | 0.72 | 88 | 1013.3 |
| 20260505201103 | 58 | 0 | 0.0 | 0.0 | 0.00 | 0.72 | 0.72 | 88 | 1013.3 |
| 20260505201003 | 58 | 0 | 0.0 | 0.0 | 0.00 | 0.72 | 0.72 | 88 | 1013.3 |
| 20260505200903 | 58 | 0 | 0.0 | 0.0 | 0.00 | 0.72 | 0.72 | 88 | 1013.3 |
| 20260505200803 | 58 | 0 | 0.0 | 0.0 | 0.00 | 0.72 | 0.72 | 88 | 1013.4 |
| 20260505200703 | 58 | 0 | 0.0 | 0.0 | 0.00 | 0.72 | 0.72 | 88 | 1013.4 |
| 20260505200603 | 58 | 0 | 0.0 | 0.0 | 0.00 | 0.72 | 0.72 | 88 | 1013.3 |
| 20260505200503 | 58 | 0 | 0.0 | 0.0 | 0.00 | 0.72 | 0.72 | 88 | 1013.3 |
| 20260505200403 | 58 | 0 | 0.0 | 0.0 | 0.00 | 0.72 | 0.72 | 88 | 1013.3 |
| 20260505200303 | 58 | 0 | 0.0 | 0.0 | 0.00 | 0.72 | 0.72 | 88 | 1013.3 |
| 20260505200203 | 58 | 0 | 0.0 | 0.0 | 0.00 | 0.72 | 0.72 | 88 | 1013.3 |
| 20260505200103 | 58 | 0 | 0.0 | 0.0 | 0.00 | 0.72 | 0.72 | 88 | 1013.3 |
| 20260505200004 | 59 | 0 | 0.0 | 0.0 | 0.00 | 0.72 | 0.72 | 88 | 1013.3 |
| 20260505195903 | 59 | 0 | 0.0 | 0.0 | 0.00 | 0.72 | 0.72 | 88 | 1013.3 |
| 20260505195803 | 59 | 0 | 0.0 | 0.0 | 0.00 | 0.72 | 0.72 | 88 | 1013.4 |
| 20260505195703 | 59 | 0 | 0.0 | 0.0 | 0.00 | 0.72 | 0.72 | 88 | 1013.3 |
| 20260505195603 | 59 | 0 | 0.0 | 0.0 | 0.00 | 0.72 | 0.72 | 88 | 1013.3 |
| 20260505195503 | 59 | 0 | 0.0 | 0.0 | 0.00 | 0.72 | 0.72 | 88 | 1013.3 |
| 20260505195403 | 59 | 0 | 0.0 | 0.0 | 0.00 | 0.72 | 0.72 | 88 | 1013.3 |
| 20260505195305 | 59 | 0 | 0.0 | 0.0 | 0.00 | 0.72 | 0.72 | 88 | 1013.3 |
| 20260505195203 | 59 | 0 | 0.0 | 0.0 | 0.00 | 0.72 | 0.72 | 88 | 1013.3 |
| 20260505195103 | 59 | 0 | 0.0 | 0.0 | 0.00 | 0.72 | 0.72 | 88 | 1013.3 |
| 20260505195003 | 59 | 0 | 0.0 | 0.0 | 0.00 | 0.72 | 0.72 | 88 | 1013.3 |
| 20260505194903 | 59 | 0 | 0.0 | 0.0 | 0.00 | 0.72 | 0.72 | 88 | 1013.2 |
| 20260505194803 | 59 | 0 | 0.0 | 0.0 | 0.00 | 0.72 | 0.72 | 88 | 1013.3 |
| 20260505194703 | 59 | 0 | 0.0 | 0.0 | 0.00 | 0.72 | 0.72 | 88 | 1013.2 |
| 20260505194603 | 59 | 0 | 0.0 | 0.0 | 0.00 | 0.72 | 0.72 | 88 | 1013.2 |
| 20260505194503 | 59 | 0 | 0.0 | 0.0 | 0.00 | 0.72 | 0.72 | 88 | 1013.2 |
| 20260505194403 | 59 | 0 | 0.0 | 0.0 | 0.00 | 0.72 | 0.72 | 88 | 1013.2 |
| 20260505194303 | 59 | 0 | 0.0 | 0.0 | 0.00 | 0.72 | 0.72 | 88 | 1013.2 |
| 20260505194203 | 59 | 0 | 0.0 | 0.0 | 0.00 | 0.72 | 0.72 | 88 | 1013.2 |
| 20260505194103 | 59 | 0 | 0.0 | 0.0 | 0.00 | 0.72 | 0.72 | 88 | 1013.2 |
| 20260505194003 | 60 | 0 | 0.0 | 0.0 | 0.00 | 0.72 | 0.72 | 87 | 1013.2 |
| 20260505193903 | 60 | 0 | 0.0 | 0.0 | 0.00 | 0.72 | 0.72 | 88 | 1013.2 |
| 20260505193803 | 60 | 0 | 0.0 | 0.0 | 0.00 | 0.72 | 0.72 | 88 | 1013.2 |
| 20260505193703 | 60 | 0 | 0.0 | 0.0 | 0.00 | 0.72 | 0.72 | 87 | 1013.2 |
| 20260505193603 | 60 | 0 | 0.0 | 0.0 | 0.00 | 0.72 | 0.72 | 87 | 1013.2 |
| 20260505193503 | 60 | 0 | 0.0 | 0.0 | 0.00 | 0.72 | 0.72 | 87 | 1013.1 |
| 20260505193403 | 60 | 0 | 0.0 | 0.0 | 0.00 | 0.72 | 0.72 | 87 | 1013.2 |
| 20260505193303 | 60 | 0 | 0.0 | 0.0 | 0.00 | 0.72 | 0.72 | 87 | 1013.2 |
| 20260505193203 | 60 | 0 | 0.0 | 0.0 | 0.00 | 0.72 | 0.72 | 87 | 1013.1 |
| 20260505193104 | 60 | 0 | 0.0 | 0.0 | 0.00 | 0.72 | 0.72 | 87 | 1013.1 |
| 20260505193003 | 60 | 0 | 0.0 | 0.0 | 0.00 | 0.72 | 0.72 | 87 | 1013.1 |
| 20260505192903 | 60 | 0 | 0.0 | 0.0 | 0.00 | 0.72 | 0.72 | 87 | 1013.1 |
| 20260505192803 | 60 | 0 | 0.0 | 0.0 | 0.00 | 0.72 | 0.72 | 87 | 1013.0 |
| 20260505192703 | 60 | 0 | 0.0 | 0.0 | 0.00 | 0.72 | 0.72 | 87 | 1013.0 |
| 20260505192603 | 60 | 0 | 0.0 | 0.0 | 0.00 | 0.72 | 0.72 | 87 | 1013.1 |
| 20260505192504 | 60 | 0 | 0.0 | 0.0 | 0.00 | 0.72 | 0.72 | 87 | 1013.0 |
| 20260505192403 | 60 | 0 | 0.0 | 0.0 | 0.00 | 0.72 | 0.72 | 87 | 1013.0 |
| 20260505192305 | 60 | 0 | 0.0 | 0.0 | 0.00 | 0.72 | 0.72 | 87 | 1013.0 |
| 20260505192203 | 60 | 0 | 0.0 | 0.0 | 0.00 | 0.72 | 0.72 | 87 | 1013.0 |
| 20260505192103 | 60 | 0 | 0.0 | 0.0 | 0.00 | 0.72 | 0.72 | 87 | 1013.0 |
| 20260505192003 | 60 | 0 | 0.0 | 0.0 | 0.00 | 0.72 | 0.72 | 87 | 1013.0 |
| 20260505191903 | 60 | 0 | 0.0 | 0.0 | 0.00 | 0.72 | 0.72 | 87 | 1013.0 |
| 20260505191803 | 60 | 0 | 0.0 | 0.0 | 0.00 | 0.72 | 0.72 | 87 | 1013.0 |
| 20260505191703 | 61 | 0 | 0.0 | 0.0 | 0.00 | 0.72 | 0.72 | 86 | 1013.0 |
| 20260505191603 | 61 | 0 | 0.0 | 0.0 | 0.00 | 0.72 | 0.72 | 86 | 1013.0 |
| 20260505191503 | 61 | 0 | 0.0 | 0.0 | 0.00 | 0.72 | 0.72 | 86 | 1013.0 |
| 20260505191403 | 61 | 0 | 0.0 | 0.0 | 0.00 | 0.72 | 0.72 | 86 | 1013.0 |
| 20260505191315 | 61 | 0 | 0.0 | 0.0 | 0.00 | 0.72 | 0.72 | 86 | 1013.0 |
| 20260505191203 | 61 | 0 | 0.0 | 0.0 | 0.00 | 0.72 | 0.72 | 86 | 1013.0 |
| 20260505191103 | 61 | 0 | 0.0 | 0.0 | 0.00 | 0.72 | 0.72 | 86 | 1013.0 |
| 20260505191003 | 61 | 0 | 0.0 | 0.0 | 0.00 | 0.72 | 0.72 | 86 | 1013.0 |
| 20260505190903 | 61 | 0 | 0.0 | 0.0 | 0.00 | 0.72 | 0.72 | 86 | 1013.0 |
| 20260505190803 | 61 | 0 | 0.0 | 0.0 | 0.00 | 0.72 | 0.72 | 86 | 1013.0 |
| 20260505190703 | 61 | 0 | 0.0 | 0.0 | 0.00 | 0.72 | 0.72 | 86 | 1013.0 |
| 20260505190603 | 61 | 0 | 0.0 | 0.0 | 0.00 | 0.72 | 0.72 | 86 | 1013.0 |
| 20260505190503 | 61 | 0 | 0.0 | 0.0 | 0.00 | 0.72 | 0.72 | 86 | 1012.9 |
| 20260505190404 | 61 | 0 | 0.0 | 0.0 | 0.00 | 0.72 | 0.72 | 86 | 1013.0 |
| 20260505190303 | 61 | 0 | 0.0 | 0.0 | 0.00 | 0.72 | 0.72 | 86 | 1012.9 |
| 20260505190204 | 61 | 0 | 0.0 | 0.0 | 0.00 | 0.72 | 0.72 | 85 | 1012.9 |
| 20260505190103 | 62 | 0 | 0.0 | 0.0 | 0.00 | 0.72 | 0.72 | 86 | 1012.9 |
| 20260505190003 | 62 | 0 | 0.0 | 0.0 | 0.00 | 0.72 | 0.72 | 85 | 1012.9 |
| 20260505185903 | 62 | 0 | 0.0 | 0.0 | 0.00 | 0.72 | 0.72 | 85 | 1012.9 |
| 20260505185803 | 62 | 0 | 0.0 | 0.0 | 0.00 | 0.72 | 0.72 | 85 | 1012.9 |
| 20260505185703 | 62 | 0 | 0.0 | 0.0 | 0.00 | 0.72 | 0.72 | 85 | 1012.9 |
| 20260505185603 | 62 | 0 | 0.0 | 0.0 | 0.00 | 0.72 | 0.72 | 85 | 1012.9 |
| 20260505185503 | 62 | 0 | 0.0 | 0.0 | 0.00 | 0.72 | 0.72 | 85 | 1012.8 |
| 20260505185403 | 62 | 0 | 0.0 | 0.0 | 0.00 | 0.72 | 0.72 | 85 | 1012.8 |
| 20260505185305 | 62 | 0 | 0.0 | 0.0 | 0.00 | 0.72 | 0.72 | 85 | 1012.9 |
| 20260505185203 | 62 | 0 | 0.0 | 0.0 | 0.00 | 0.72 | 0.72 | 85 | 1012.9 |
| 20260505185103 | 62 | 0 | 0.0 | 0.0 | 0.00 | 0.72 | 0.72 | 85 | 1012.8 |
| 20260505185003 | 62 | 0 | 0.0 | 0.0 | 0.00 | 0.72 | 0.72 | 84 | 1012.9 |
| 20260505184903 | 62 | 0 | 0.0 | 0.0 | 0.00 | 0.72 | 0.72 | 84 | 1012.8 |
| 20260505184803 | 62 | 0 | 0.0 | 0.0 | 0.00 | 0.72 | 0.72 | 84 | 1012.8 |
| 20260505184703 | 62 | 0 | 0.0 | 0.0 | 0.00 | 0.72 | 0.72 | 84 | 1012.8 |
| 20260505184603 | 63 | 0 | 0.0 | 0.0 | 0.00 | 0.72 | 0.72 | 84 | 1012.8 |
| 20260505184503 | 63 | 0 | 0.0 | 0.0 | 0.00 | 0.72 | 0.72 | 83 | 1012.8 |
| 20260505184403 | 63 | 0 | 0.0 | 0.0 | 0.00 | 0.72 | 0.72 | 83 | 1012.8 |
| 20260505184303 | 63 | 0 | 0.0 | 0.0 | 0.00 | 0.72 | 0.72 | 83 | 1012.8 |
| 20260505184204 | 63 | 0 | 0.0 | 0.0 | 0.00 | 0.72 | 0.72 | 83 | 1012.8 |
| 20260505184103 | 63 | 0 | 0.0 | 0.0 | 0.00 | 0.72 | 0.72 | 83 | 1012.8 |
| 20260505184003 | 63 | 0 | 0.0 | 0.0 | 0.00 | 0.72 | 0.72 | 82 | 1012.9 |
| 20260505183903 | 64 | 0 | 0.0 | 0.0 | 0.00 | 0.72 | 0.72 | 82 | 1012.9 |
| 20260505183803 | 64 | 0 | 0.0 | 0.0 | 0.00 | 0.72 | 0.72 | 82 | 1012.9 |
| 20260505183703 | 64 | 0 | 0.0 | 0.0 | 0.00 | 0.72 | 0.72 | 82 | 1012.9 |
| 20260505183603 | 64 | 0 | 0.0 | 0.0 | 0.00 | 0.72 | 0.72 | 81 | 1013.0 |
| 20260505183503 | 64 | 0 | 0.0 | 0.0 | 0.00 | 0.72 | 0.72 | 81 | 1013.0 |
| 20260505183403 | 64 | 0 | 0.0 | 0.0 | 0.00 | 0.72 | 0.72 | 81 | 1013.0 |
| 20260505183303 | 64 | 0 | 0.0 | 0.0 | 0.00 | 0.72 | 0.72 | 81 | 1013.0 |
| 20260505183203 | 64 | 0 | 1.0 | 0.0 | 0.00 | 0.72 | 0.72 | 81 | 1013.0 |
| 20260505183104 | 64 | 0 | 1.0 | 0.0 | 0.00 | 0.72 | 0.72 | 80 | 1013.0 |
| 20260505183005 | 64 | 0 | 1.0 | 0.0 | 0.00 | 0.72 | 0.72 | 81 | 1012.9 |
| 20260505182903 | 64 | 235 | 1.0 | 3.0 | 0.00 | 0.72 | 0.72 | 80 | 1013.0 |
| 20260505182803 | 64 | 235 | 2.0 | 3.0 | 0.00 | 0.72 | 0.72 | 80 | 1012.9 |
| 20260505182703 | 64 | 235 | 2.0 | 4.0 | 0.00 | 0.72 | 0.72 | 80 | 1012.9 |
| 20260505182603 | 64 | 236 | 2.0 | 6.0 | 0.00 | 0.72 | 0.72 | 80 | 1012.9 |
| 20260505182503 | 65 | 235 | 2.0 | 6.0 | 0.00 | 0.72 | 0.72 | 80 | 1012.9 |
| 20260505182403 | 65 | 233 | 2.0 | 6.0 | 0.00 | 0.72 | 0.72 | 80 | 1012.8 |
| 20260505182306 | 65 | 232 | 3.0 | 6.0 | 0.00 | 0.72 | 0.72 | 80 | 1012.8 |
| 20260505182203 | 65 | 231 | 3.0 | 6.0 | 0.00 | 0.72 | 0.72 | 80 | 1012.8 |
| 20260505182103 | 65 | 230 | 3.0 | 6.0 | 0.00 | 0.72 | 0.72 | 80 | 1012.7 |
| 20260505182003 | 65 | 228 | 3.0 | 8.0 | 0.00 | 0.72 | 0.72 | 80 | 1012.8 |
| 20260505181903 | 65 | 228 | 3.0 | 8.0 | 0.00 | 0.72 | 0.72 | 80 | 1012.7 |
| 20260505181803 | 65 | 228 | 3.0 | 8.0 | 0.00 | 0.72 | 0.72 | 80 | 1012.8 |
| 20260505181703 | 65 | 228 | 3.0 | 8.0 | 0.00 | 0.72 | 0.72 | 80 | 1012.8 |
| 20260505181603 | 65 | 225 | 3.0 | 8.0 | 0.00 | 0.72 | 0.72 | 80 | 1012.7 |
| 20260505181503 | 65 | 223 | 3.0 | 9.0 | 0.00 | 0.72 | 0.72 | 80 | 1012.8 |
| 20260505181403 | 65 | 225 | 3.0 | 9.0 | 0.00 | 0.72 | 0.72 | 80 | 1012.8 |
| 20260505181303 | 65 | 224 | 3.0 | 9.0 | 0.00 | 0.72 | 0.72 | 80 | 1012.8 |
| 20260505181203 | 65 | 223 | 3.0 | 9.0 | 0.00 | 0.72 | 0.72 | 80 | 1012.9 |
| 20260505181103 | 65 | 223 | 3.0 | 9.0 | 0.00 | 0.72 | 0.72 | 79 | 1012.9 |
| 20260505181003 | 65 | 225 | 3.0 | 9.0 | 0.00 | 0.72 | 0.72 | 79 | 1012.9 |
| 20260505180903 | 65 | 226 | 3.0 | 9.0 | 0.00 | 0.72 | 0.72 | 79 | 1012.9 |
| 20260505180803 | 65 | 226 | 3.0 | 9.0 | 0.00 | 0.72 | 0.72 | 79 | 1012.8 |
| 20260505180703 | 65 | 225 | 3.0 | 9.0 | 0.00 | 0.72 | 0.72 | 79 | 1012.8 |
| 20260505180603 | 65 | 226 | 3.0 | 9.0 | 0.00 | 0.72 | 0.72 | 80 | 1012.8 |
| 20260505180503 | 65 | 226 | 3.0 | 8.0 | 0.00 | 0.72 | 0.72 | 79 | 1012.8 |
| 20260505180404 | 65 | 226 | 3.0 | 8.0 | 0.00 | 0.72 | 0.72 | 79 | 1012.8 |
| 20260505180303 | 65 | 226 | 3.0 | 8.0 | 0.00 | 0.72 | 0.72 | 79 | 1012.8 |
| 20260505180203 | 65 | 227 | 3.0 | 8.0 | 0.00 | 0.72 | 0.72 | 79 | 1012.8 |
| 20260505180103 | 65 | 225 | 3.0 | 8.0 | 0.00 | 0.72 | 0.72 | 79 | 1012.8 |
| 20260505180003 | 65 | 223 | 3.0 | 8.0 | 0.00 | 0.72 | 0.72 | 79 | 1012.8 |
| 20260505175903 | 65 | 218 | 3.0 | 8.0 | 0.00 | 0.72 | 0.72 | 79 | 1012.8 |
| 20260505175803 | 65 | 217 | 3.0 | 8.0 | 0.00 | 0.72 | 0.72 | 79 | 1012.8 |
| 20260505175703 | 65 | 216 | 3.0 | 8.0 | 0.00 | 0.72 | 0.72 | 79 | 1012.9 |
| 20260505175604 | 65 | 216 | 4.0 | 8.0 | 0.00 | 0.72 | 0.72 | 80 | 1012.9 |
| 20260505175503 | 65 | 215 | 4.0 | 7.0 | 0.00 | 0.72 | 0.72 | 80 | 1012.9 |
| 20260505175403 | 65 | 214 | 4.0 | 7.0 | 0.00 | 0.72 | 0.72 | 80 | 1012.9 |
| 20260505175305 | 65 | 212 | 4.0 | 7.0 | 0.00 | 0.72 | 0.72 | 80 | 1012.9 |
| 20260505175204 | 65 | 211 | 4.0 | 8.0 | 0.00 | 0.72 | 0.72 | 79 | 1012.9 |
| 20260505175103 | 65 | 211 | 4.0 | 10.0 | 0.00 | 0.72 | 0.72 | 79 | 1012.9 |
| 20260505175003 | 65 | 211 | 4.0 | 10.0 | 0.00 | 0.72 | 0.72 | 79 | 1012.8 |
| 20260505174903 | 65 | 211 | 4.0 | 10.0 | 0.00 | 0.72 | 0.72 | 79 | 1012.9 |
| 20260505174803 | 65 | 211 | 4.0 | 10.0 | 0.00 | 0.72 | 0.72 | 79 | 1012.9 |
| 20260505174703 | 65 | 210 | 4.0 | 10.0 | 0.00 | 0.72 | 0.72 | 79 | 1012.8 |
| 20260505174603 | 65 | 211 | 4.0 | 10.0 | 0.00 | 0.72 | 0.72 | 79 | 1012.8 |
| 20260505174503 | 65 | 212 | 5.0 | 10.0 | 0.00 | 0.72 | 0.72 | 79 | 1012.8 |
| 20260505174403 | 65 | 210 | 5.0 | 11.0 | 0.00 | 0.72 | 0.72 | 79 | 1012.9 |
| 20260505174303 | 65 | 210 | 5.0 | 11.0 | 0.00 | 0.72 | 0.72 | 79 | 1012.9 |
| 20260505174203 | 65 | 211 | 5.0 | 11.0 | 0.00 | 0.72 | 0.72 | 79 | 1012.9 |
| 20260505174103 | 65 | 212 | 5.0 | 11.0 | 0.00 | 0.72 | 0.72 | 79 | 1012.9 |
| 20260505174003 | 65 | 212 | 5.0 | 11.0 | 0.00 | 0.72 | 0.72 | 79 | 1012.8 |
| 20260505173903 | 65 | 212 | 5.0 | 11.0 | 0.00 | 0.72 | 0.72 | 79 | 1012.9 |
| 20260505173803 | 65 | 211 | 5.0 | 11.0 | 0.00 | 0.72 | 0.72 | 79 | 1012.9 |
| 20260505173703 | 65 | 213 | 5.0 | 11.0 | 0.00 | 0.72 | 0.72 | 79 | 1012.9 |
| 20260505173603 | 65 | 212 | 5.0 | 11.0 | 0.00 | 0.72 | 0.72 | 79 | 1012.9 |
| 20260505173503 | 65 | 212 | 5.0 | 11.0 | 0.00 | 0.72 | 0.72 | 79 | 1012.9 |
| 20260505173403 | 65 | 215 | 5.0 | 13.0 | 0.00 | 0.72 | 0.72 | 79 | 1012.9 |
| 20260505173303 | 65 | 215 | 5.0 | 13.0 | 0.00 | 0.72 | 0.72 | 79 | 1012.9 |
| 20260505173203 | 65 | 216 | 5.0 | 13.0 | 0.00 | 0.72 | 0.72 | 79 | 1012.9 |
| 20260505173103 | 65 | 217 | 5.0 | 13.0 | 0.00 | 0.72 | 0.72 | 79 | 1012.9 |
| 20260505173003 | 65 | 218 | 5.0 | 13.0 | 0.00 | 0.72 | 0.72 | 79 | 1012.9 |
| 20260505172903 | 65 | 222 | 5.0 | 13.0 | 0.00 | 0.72 | 0.72 | 79 | 1012.9 |
| 20260505172803 | 65 | 223 | 5.0 | 13.0 | 0.00 | 0.72 | 0.72 | 79 | 1012.9 |
| 20260505172703 | 65 | 221 | 5.0 | 13.0 | 0.00 | 0.72 | 0.72 | 79 | 1012.9 |
| 20260505172603 | 65 | 222 | 5.0 | 13.0 | 0.00 | 0.72 | 0.72 | 79 | 1012.8 |
| 20260505172503 | 65 | 222 | 5.0 | 13.0 | 0.00 | 0.72 | 0.72 | 79 | 1012.8 |
| 20260505172403 | 65 | 223 | 5.0 | 11.0 | 0.00 | 0.72 | 0.72 | 79 | 1012.8 |
| 20260505172305 | 65 | 225 | 5.0 | 11.0 | 0.00 | 0.72 | 0.72 | 80 | 1012.8 |
| 20260505172203 | 65 | 223 | 5.0 | 11.0 | 0.00 | 0.72 | 0.72 | 80 | 1012.8 |
| 20260505172103 | 65 | 224 | 5.0 | 11.0 | 0.00 | 0.72 | 0.72 | 79 | 1012.7 |
| 20260505172003 | 65 | 223 | 5.0 | 11.0 | 0.00 | 0.72 | 0.72 | 79 | 1012.7 |
| 20260505171903 | 65 | 222 | 5.0 | 11.0 | 0.00 | 0.72 | 0.72 | 79 | 1012.7 |
| 20260505171803 | 65 | 222 | 5.0 | 11.0 | 0.00 | 0.72 | 0.72 | 79 | 1012.7 |
| 20260505171703 | 65 | 223 | 5.0 | 11.0 | 0.00 | 0.72 | 0.72 | 79 | 1012.7 |
| 20260505171603 | 65 | 225 | 5.0 | 11.0 | 0.00 | 0.72 | 0.72 | 79 | 1012.8 |
| 20260505171503 | 65 | 225 | 5.0 | 11.0 | 0.00 | 0.72 | 0.72 | 79 | 1012.8 |
| 20260505171403 | 66 | 224 | 5.0 | 11.0 | 0.00 | 0.72 | 0.72 | 79 | 1012.8 |
| 20260505171304 | 66 | 223 | 5.0 | 11.0 | 0.00 | 0.72 | 0.72 | 79 | 1012.7 |
| 20260505171203 | 66 | 223 | 4.0 | 11.0 | 0.00 | 0.72 | 0.72 | 78 | 1012.7 |
| 20260505171103 | 66 | 222 | 4.0 | 11.0 | 0.00 | 0.72 | 0.72 | 78 | 1012.7 |
| 20260505171004 | 66 | 222 | 4.0 | 11.0 | 0.00 | 0.72 | 0.72 | 78 | 1012.7 |
| 20260505170903 | 66 | 220 | 4.0 | 11.0 | 0.00 | 0.72 | 0.72 | 78 | 1012.7 |
| 20260505170803 | 66 | 220 | 4.0 | 11.0 | 0.00 | 0.72 | 0.72 | 78 | 1012.7 |
| 20260505170703 | 66 | 221 | 4.0 | 11.0 | 0.00 | 0.72 | 0.72 | 78 | 1012.7 |
| 20260505170603 | 66 | 221 | 4.0 | 11.0 | 0.00 | 0.72 | 0.72 | 78 | 1012.7 |
| 20260505170503 | 66 | 221 | 4.0 | 11.0 | 0.00 | 0.72 | 0.72 | 78 | 1012.7 |
| 20260505170403 | 66 | 222 | 4.0 | 11.0 | 0.00 | 0.72 | 0.72 | 78 | 1012.7 |
| 20260505170303 | 66 | 223 | 4.0 | 9.0 | 0.00 | 0.72 | 0.72 | 78 | 1012.6 |
| 20260505170203 | 66 | 225 | 4.0 | 9.0 | 0.00 | 0.72 | 0.72 | 78 | 1012.6 |
| 20260505170003 | 66 | 224 | 5.0 | 9.0 | 0.00 | 0.72 | 0.72 | 78 | 1012.6 |
| 20260505165903 | 66 | 224 | 5.0 | 10.0 | 0.00 | 0.72 | 0.72 | 78 | 1012.6 |
| 20260505165803 | 66 | 222 | 5.0 | 10.0 | 0.00 | 0.72 | 0.72 | 78 | 1012.6 |
| 20260505165703 | 66 | 220 | 6.0 | 10.0 | 0.00 | 0.72 | 0.72 | 78 | 1012.6 |
| 20260505165603 | 66 | 217 | 6.0 | 10.0 | 0.00 | 0.72 | 0.72 | 78 | 1012.6 |
| 20260505165503 | 66 | 216 | 6.0 | 10.0 | 0.00 | 0.72 | 0.72 | 78 | 1012.6 |
| 20260505165403 | 66 | 217 | 6.0 | 10.0 | 0.00 | 0.72 | 0.72 | 78 | 1012.7 |
| 20260505165306 | 66 | 216 | 6.0 | 10.0 | 0.00 | 0.72 | 0.72 | 78 | 1012.7 |
| 20260505165204 | 66 | 215 | 6.0 | 10.0 | 0.00 | 0.72 | 0.72 | 78 | 1012.6 |
| 20260505165103 | 66 | 214 | 5.0 | 10.0 | 0.00 | 0.72 | 0.72 | 78 | 1012.6 |
| 20260505165003 | 66 | 213 | 5.0 | 10.0 | 0.00 | 0.72 | 0.72 | 78 | 1012.7 |
| 20260505164903 | 66 | 213 | 5.0 | 10.0 | 0.00 | 0.72 | 0.72 | 78 | 1012.6 |
| 20260505164803 | 66 | 213 | 5.0 | 10.0 | 0.00 | 0.72 | 0.72 | 78 | 1012.6 |
| 20260505164703 | 66 | 213 | 5.0 | 10.0 | 0.00 | 0.72 | 0.72 | 78 | 1012.7 |
| 20260505164603 | 66 | 212 | 5.0 | 12.0 | 0.00 | 0.72 | 0.72 | 78 | 1012.5 |
| 20260505164503 | 66 | 213 | 5.0 | 12.0 | 0.00 | 0.72 | 0.72 | 78 | 1012.6 |
| 20260505164403 | 66 | 212 | 5.0 | 12.0 | 0.00 | 0.72 | 0.72 | 78 | 1012.6 |
| 20260505164303 | 66 | 211 | 5.0 | 12.0 | 0.00 | 0.72 | 0.72 | 78 | 1012.6 |
| 20260505164203 | 66 | 211 | 5.0 | 12.0 | 0.00 | 0.72 | 0.72 | 78 | 1012.6 |
| 20260505164103 | 66 | 210 | 5.0 | 12.0 | 0.00 | 0.72 | 0.72 | 78 | 1012.6 |
| 20260505164003 | 66 | 209 | 5.0 | 12.0 | 0.00 | 0.72 | 0.72 | 77 | 1012.6 |
| 20260505163903 | 66 | 208 | 4.0 | 12.0 | 0.00 | 0.72 | 0.72 | 77 | 1012.7 |
| 20260505163803 | 66 | 209 | 4.0 | 12.0 | 0.00 | 0.72 | 0.72 | 77 | 1012.6 |
| 20260505163703 | 66 | 210 | 4.0 | 12.0 | 0.00 | 0.72 | 0.72 | 77 | 1012.7 |
| 20260505163603 | 66 | 211 | 4.0 | 10.0 | 0.00 | 0.72 | 0.72 | 77 | 1012.7 |
| 20260505163503 | 66 | 212 | 3.0 | 10.0 | 0.00 | 0.72 | 0.72 | 77 | 1012.7 |
| 20260505163403 | 66 | 213 | 3.0 | 10.0 | 0.00 | 0.72 | 0.72 | 77 | 1012.7 |
| 20260505163303 | 66 | 215 | 3.0 | 10.0 | 0.00 | 0.72 | 0.72 | 77 | 1012.7 |
| 20260505163203 | 67 | 216 | 3.0 | 10.0 | 0.00 | 0.72 | 0.72 | 77 | 1012.7 |
| 20260505163105 | 67 | 218 | 3.0 | 10.0 | 0.00 | 0.72 | 0.72 | 77 | 1012.7 |
| 20260505163003 | 67 | 219 | 3.0 | 10.0 | 0.00 | 0.72 | 0.72 | 77 | 1012.7 |
| 20260505162903 | 67 | 221 | 3.0 | 9.0 | 0.00 | 0.72 | 0.72 | 77 | 1012.7 |
| 20260505162803 | 67 | 220 | 3.0 | 7.0 | 0.00 | 0.72 | 0.72 | 77 | 1012.7 |
| 20260505162703 | 67 | 214 | 4.0 | 7.0 | 0.00 | 0.72 | 0.72 | 76 | 1012.7 |
| 20260505162603 | 66 | 212 | 4.0 | 7.0 | 0.00 | 0.72 | 0.72 | 76 | 1012.7 |
| 20260505162503 | 66 | 210 | 4.0 | 7.0 | 0.00 | 0.72 | 0.72 | 77 | 1012.7 |
| 20260505162403 | 67 | 208 | 4.0 | 9.0 | 0.00 | 0.72 | 0.72 | 77 | 1012.7 |
| 20260505162306 | 66 | 209 | 4.0 | 9.0 | 0.00 | 0.72 | 0.72 | 77 | 1012.7 |
| 20260505162204 | 66 | 210 | 4.0 | 9.0 | 0.00 | 0.72 | 0.72 | 77 | 1012.7 |
| 20260505162103 | 66 | 211 | 4.0 | 9.0 | 0.00 | 0.72 | 0.72 | 77 | 1012.7 |
| 20260505162003 | 66 | 214 | 4.0 | 9.0 | 0.00 | 0.72 | 0.72 | 77 | 1012.7 |
| 20260505161903 | 67 | 213 | 4.0 | 9.0 | 0.00 | 0.72 | 0.72 | 77 | 1012.7 |
| 20260505161803 | 67 | 217 | 4.0 | 10.0 | 0.00 | 0.72 | 0.72 | 78 | 1012.8 |
| 20260505161703 | 67 | 218 | 4.0 | 10.0 | 0.00 | 0.72 | 0.72 | 78 | 1012.8 |
| 20260505161603 | 66 | 218 | 4.0 | 10.0 | 0.00 | 0.72 | 0.72 | 78 | 1012.8 |
| 20260505161503 | 66 | 218 | 4.0 | 10.0 | 0.00 | 0.72 | 0.72 | 77 | 1012.8 |
| 20260505161403 | 66 | 218 | 4.0 | 10.0 | 0.00 | 0.72 | 0.72 | 75 | 1012.8 |
| 20260505161303 | 66 | 216 | 4.0 | 10.0 | 0.00 | 0.72 | 0.72 | 76 | 1012.8 |
| 20260505161204 | 66 | 214 | 5.0 | 10.0 | 0.00 | 0.72 | 0.72 | 76 | 1012.8 |
| 20260505161103 | 66 | 215 | 5.0 | 10.0 | 0.00 | 0.72 | 0.72 | 76 | 1012.8 |
| 20260505161003 | 66 | 217 | 5.0 | 10.0 | 0.00 | 0.72 | 0.72 | 76 | 1012.9 |
| 20260505160903 | 66 | 219 | 5.0 | 10.0 | 0.00 | 0.72 | 0.72 | 76 | 1012.9 |
| 20260505160803 | 66 | 218 | 5.0 | 10.0 | 0.00 | 0.72 | 0.72 | 76 | 1012.9 |
| 20260505160703 | 66 | 219 | 5.0 | 10.0 | 0.00 | 0.72 | 0.72 | 76 | 1012.9 |
| 20260505160603 | 66 | 221 | 5.0 | 10.0 | 0.00 | 0.72 | 0.72 | 77 | 1012.9 |
| 20260505160503 | 66 | 221 | 5.0 | 10.0 | 0.00 | 0.72 | 0.72 | 77 | 1012.9 |
| 20260505160403 | 66 | 221 | 5.0 | 10.0 | 0.00 | 0.72 | 0.72 | 78 | 1012.9 |
| 20260505160303 | 66 | 222 | 5.0 | 10.0 | 0.00 | 0.72 | 0.72 | 77 | 1012.9 |
| 20260505160204 | 66 | 223 | 5.0 | 10.0 | 0.00 | 0.72 | 0.72 | 78 | 1012.9 |
| 20260505153303 | 67 | 215 | 5.0 | 11.0 | 0.00 | 0.72 | 0.72 | 77 | 1013.1 |
| 20260505153203 | 67 | 215 | 5.0 | 11.0 | 0.00 | 0.72 | 0.72 | 77 | 1013.1 |
| 20260505153103 | 67 | 215 | 5.0 | 11.0 | 0.00 | 0.72 | 0.72 | 77 | 1013.1 |
| 20260505153003 | 67 | 214 | 5.0 | 11.0 | 0.00 | 0.72 | 0.72 | 77 | 1013.1 |
| 20260505152903 | 67 | 215 | 5.0 | 11.0 | 0.00 | 0.72 | 0.72 | 77 | 1013.1 |
| 20260505152803 | 67 | 214 | 5.0 | 11.0 | 0.00 | 0.72 | 0.72 | 77 | 1013.2 |
| 20260505152703 | 67 | 213 | 5.0 | 11.0 | 0.00 | 0.72 | 0.72 | 77 | 1013.1 |
| 20260505152604 | 67 | 214 | 5.0 | 11.0 | 0.00 | 0.72 | 0.72 | 77 | 1013.1 |
| 20260505152504 | 67 | 215 | 5.0 | 11.0 | 0.00 | 0.72 | 0.72 | 77 | 1013.1 |
| 20260505152403 | 67 | 215 | 5.0 | 11.0 | 0.00 | 0.72 | 0.72 | 77 | 1013.1 |
| 20260505152305 | 67 | 213 | 5.0 | 11.0 | 0.00 | 0.72 | 0.72 | 77 | 1013.1 |
| 20260505152203 | 67 | 212 | 5.0 | 11.0 | 0.00 | 0.72 | 0.72 | 76 | 1013.1 |
| 20260505152103 | 67 | 211 | 5.0 | 11.0 | 0.00 | 0.72 | 0.72 | 76 | 1013.1 |
| 20260505152003 | 68 | 212 | 5.0 | 11.0 | 0.00 | 0.72 | 0.72 | 76 | 1013.1 |
| 20260505151903 | 68 | 212 | 5.0 | 11.0 | 0.00 | 0.72 | 0.72 | 76 | 1013.1 |
| 20260505151803 | 68 | 212 | 5.0 | 11.0 | 0.00 | 0.72 | 0.72 | 77 | 1013.1 |
| 20260505151703 | 68 | 213 | 5.0 | 11.0 | 0.00 | 0.72 | 0.72 | 76 | 1013.1 |
| 20260505151603 | 68 | 213 | 5.0 | 11.0 | 0.00 | 0.72 | 0.72 | 76 | 1013.0 |
| 20260505151503 | 68 | 210 | 5.0 | 11.0 | 0.00 | 0.72 | 0.72 | 75 | 1013.1 |
| 20260505151403 | 68 | 208 | 5.0 | 11.0 | 0.00 | 0.72 | 0.72 | 75 | 1013.1 |
| 20260505151303 | 68 | 208 | 5.0 | 11.0 | 0.00 | 0.72 | 0.72 | 75 | 1013.0 |
| 20260505151203 | 68 | 207 | 5.0 | 11.0 | 0.00 | 0.72 | 0.72 | 75 | 1013.0 |
| 20260505151103 | 68 | 207 | 5.0 | 11.0 | 0.00 | 0.72 | 0.72 | 74 | 1013.0 |
| 20260505151003 | 68 | 207 | 5.0 | 11.0 | 0.00 | 0.72 | 0.72 | 74 | 1013.0 |
| 20260505150903 | 68 | 207 | 5.0 | 11.0 | 0.00 | 0.72 | 0.72 | 74 | 1013.1 |
| 20260505150803 | 68 | 209 | 5.0 | 11.0 | 0.00 | 0.72 | 0.72 | 74 | 1013.0 |
| 20260505150703 | 69 | 208 | 5.0 | 11.0 | 0.00 | 0.72 | 0.72 | 74 | 1013.0 |
| 20260505150603 | 69 | 208 | 5.0 | 11.0 | 0.00 | 0.72 | 0.72 | 74 | 1013.0 |
| 20260505150503 | 69 | 210 | 5.0 | 11.0 | 0.00 | 0.72 | 0.72 | 73 | 1013.0 |
| 20260505150403 | 69 | 211 | 5.0 | 11.0 | 0.00 | 0.72 | 0.72 | 72 | 1013.0 |
| 20260505150303 | 69 | 212 | 5.0 | 11.0 | 0.00 | 0.72 | 0.72 | 72 | 1013.0 |
| 20260505150203 | 69 | 214 | 5.0 | 11.0 | 0.00 | 0.72 | 0.72 | 71 | 1013.0 |
| 20260505140603 | 68 | 230 | 6.0 | 10.0 | 0.00 | 0.72 | 0.72 | 71 | 1013.0 |
| 20260505140503 | 68 | 230 | 6.0 | 10.0 | 0.00 | 0.72 | 0.72 | 71 | 1013.0 |
| 20260505140403 | 68 | 227 | 5.0 | 10.0 | 0.00 | 0.72 | 0.72 | 71 | 1013.0 |
| 20260505140304 | 68 | 227 | 5.0 | 10.0 | 0.00 | 0.72 | 0.72 | 71 | 1013.0 |
| 20260505140203 | 68 | 227 | 5.0 | 10.0 | 0.00 | 0.72 | 0.72 | 71 | 1013.0 |
| 20260505130303 | 68 | 225 | 7.0 | 13.0 | 0.00 | 0.72 | 0.72 | 76 | 1013.3 |
| 20260505130203 | 68 | 224 | 7.0 | 13.0 | 0.00 | 0.72 | 0.72 | 76 | 1013.3 |
| 20260505130103 | 68 | 225 | 7.0 | 13.0 | 0.00 | 0.72 | 0.72 | 76 | 1013.3 |
| 20260505125003 | 68 | 219 | 6.0 | 13.0 | 0.00 | 0.72 | 0.72 | 74 | 1013.4 |
| 20260505124903 | 68 | 217 | 6.0 | 13.0 | 0.00 | 0.72 | 0.72 | 74 | 1013.4 |
| 20260505124803 | 68 | 219 | 7.0 | 13.0 | 0.00 | 0.72 | 0.72 | 74 | 1013.4 |
| 20260505124703 | 68 | 219 | 7.0 | 13.0 | 0.00 | 0.72 | 0.72 | 74 | 1013.3 |
| 20260505124603 | 68 | 219 | 7.0 | 13.0 | 0.00 | 0.72 | 0.72 | 74 | 1013.3 |
| 20260505124503 | 68 | 220 | 7.0 | 13.0 | 0.00 | 0.72 | 0.72 | 74 | 1013.3 |
| 20260505124403 | 68 | 219 | 7.0 | 13.0 | 0.00 | 0.72 | 0.72 | 74 | 1013.3 |
| 20260505124303 | 68 | 219 | 7.0 | 13.0 | 0.00 | 0.72 | 0.72 | 74 | 1013.3 |
| 20260505124203 | 68 | 218 | 7.0 | 15.0 | 0.00 | 0.72 | 0.72 | 75 | 1013.3 |
| 20260505124103 | 68 | 218 | 7.0 | 15.0 | 0.00 | 0.72 | 0.72 | 75 | 1013.3 |
| 20260505124003 | 67 | 217 | 6.0 | 15.0 | 0.00 | 0.72 | 0.72 | 75 | 1013.4 |
| 20260505123903 | 67 | 217 | 6.0 | 15.0 | 0.00 | 0.72 | 0.72 | 75 | 1013.3 |
| 20260505123803 | 67 | 217 | 6.0 | 15.0 | 0.00 | 0.72 | 0.72 | 75 | 1013.3 |
| 20260505123703 | 67 | 215 | 5.0 | 15.0 | 0.00 | 0.72 | 0.72 | 75 | 1013.3 |
| 20260505123603 | 67 | 215 | 5.0 | 15.0 | 0.00 | 0.72 | 0.72 | 76 | 1013.3 |
| 20260505123503 | 67 | 214 | 5.0 | 15.0 | 0.00 | 0.72 | 0.72 | 76 | 1013.3 |
| 20260505123403 | 67 | 215 | 5.0 | 15.0 | 0.00 | 0.72 | 0.72 | 76 | 1013.3 |
| 20260505123303 | 67 | 216 | 5.0 | 15.0 | 0.00 | 0.72 | 0.72 | 75 | 1013.3 |
| 20260505123203 | 67 | 217 | 5.0 | 15.0 | 0.00 | 0.72 | 0.72 | 74 | 1013.4 |
| 20260505123103 | 67 | 218 | 5.0 | 14.0 | 0.00 | 0.72 | 0.72 | 75 | 1013.3 |
| 20260505123003 | 67 | 219 | 5.0 | 14.0 | 0.00 | 0.72 | 0.72 | 75 | 1013.3 |
| 20260505122903 | 68 | 221 | 5.0 | 14.0 | 0.00 | 0.72 | 0.72 | 73 | 1013.3 |
| 20260505122803 | 67 | 218 | 6.0 | 12.0 | 0.00 | 0.72 | 0.72 | 70 | 1013.4 |
| 20260505122703 | 68 | 220 | 6.0 | 14.0 | 0.00 | 0.72 | 0.72 | 71 | 1013.4 |
| 20260505122603 | 67 | 220 | 6.0 | 14.0 | 0.00 | 0.72 | 0.72 | 71 | 1013.3 |
| 20260505122503 | 67 | 220 | 7.0 | 14.0 | 0.00 | 0.72 | 0.72 | 73 | 1013.4 |
| 20260505122403 | 67 | 221 | 7.0 | 14.0 | 0.00 | 0.72 | 0.72 | 75 | 1013.4 |
| 20260505122305 | 67 | 220 | 7.0 | 14.0 | 0.00 | 0.72 | 0.72 | 74 | 1013.4 |
| 20260505122203 | 67 | 220 | 7.0 | 14.0 | 0.00 | 0.72 | 0.72 | 75 | 1013.4 |
| 20260505122103 | 67 | 219 | 7.0 | 14.0 | 0.00 | 0.72 | 0.72 | 76 | 1013.4 |
| 20260505122003 | 67 | 218 | 7.0 | 14.0 | 0.00 | 0.72 | 0.72 | 76 | 1013.4 |
| 20260505121903 | 67 | 217 | 7.0 | 14.0 | 0.00 | 0.72 | 0.72 | 76 | 1013.4 |
| 20260505121804 | 67 | 218 | 7.0 | 15.0 | 0.00 | 0.72 | 0.72 | 76 | 1013.3 |
| 20260505121703 | 67 | 218 | 7.0 | 15.0 | 0.00 | 0.72 | 0.72 | 76 | 1013.3 |
| 20260505121603 | 67 | 220 | 6.0 | 15.0 | 0.00 | 0.72 | 0.72 | 76 | 1013.3 |
| 20260505121503 | 67 | 220 | 6.0 | 15.0 | 0.00 | 0.72 | 0.72 | 75 | 1013.3 |
| 20260505121403 | 67 | 220 | 6.0 | 15.0 | 0.00 | 0.72 | 0.72 | 76 | 1013.3 |
| 20260505121303 | 67 | 219 | 6.0 | 15.0 | 0.00 | 0.72 | 0.72 | 76 | 1013.3 |
| 20260505121203 | 67 | 218 | 6.0 | 15.0 | 0.00 | 0.72 | 0.72 | 77 | 1013.3 |
| 20260505121103 | 67 | 219 | 7.0 | 15.0 | 0.00 | 0.72 | 0.72 | 76 | 1013.3 |
| 20260505121003 | 67 | 221 | 7.0 | 15.0 | 0.00 | 0.72 | 0.72 | 76 | 1013.4 |
| 20260505120903 | 67 | 223 | 7.0 | 15.0 | 0.00 | 0.72 | 0.72 | 76 | 1013.3 |
| 20260505120803 | 67 | 223 | 7.0 | 14.0 | 0.00 | 0.72 | 0.72 | 76 | 1013.3 |
| 20260505120703 | 67 | 223 | 7.0 | 14.0 | 0.00 | 0.72 | 0.72 | 75 | 1013.3 |
| 20260505120603 | 67 | 223 | 7.0 | 14.0 | 0.00 | 0.72 | 0.72 | 75 | 1013.3 |
| 20260505120503 | 67 | 223 | 7.0 | 14.0 | 0.00 | 0.72 | 0.72 | 73 | 1013.3 |
| 20260505120403 | 67 | 224 | 7.0 | 14.0 | 0.00 | 0.72 | 0.72 | 72 | 1013.3 |
| 20260505120303 | 66 | 225 | 7.0 | 14.0 | 0.00 | 0.72 | 0.72 | 74 | 1013.3 |
| 20260505120203 | 66 | 226 | 7.0 | 14.0 | 0.00 | 0.72 | 0.72 | 76 | 1013.3 |
| 20260505120103 | 66 | 226 | 7.0 | 14.0 | 0.00 | 0.72 | 0.72 | 76 | 1013.3 |
| 20260505120004 | 66 | 226 | 6.0 | 14.0 | 0.00 | 0.72 | 0.72 | 76 | 1013.2 |
| 20260505115903 | 67 | 226 | 6.0 | 14.0 | 0.00 | 0.72 | 0.72 | 76 | 1013.2 |
| 20260505115804 | 67 | 225 | 5.0 | 13.0 | 0.00 | 0.72 | 0.72 | 77 | 1013.2 |
| 20260505115703 | 67 | 224 | 5.0 | 13.0 | 0.00 | 0.72 | 0.72 | 77 | 1013.2 |
| 20260505115603 | 67 | 223 | 5.0 | 13.0 | 0.00 | 0.72 | 0.72 | 76 | 1013.2 |
| 20260505115503 | 67 | 222 | 4.0 | 13.0 | 0.00 | 0.72 | 0.72 | 76 | 1013.1 |
| 20260505115403 | 67 | 222 | 4.0 | 12.0 | 0.00 | 0.72 | 0.72 | 76 | 1013.1 |
| 20260505115305 | 67 | 222 | 4.0 | 11.0 | 0.00 | 0.72 | 0.72 | 76 | 1013.2 |
| 20260505115203 | 67 | 222 | 4.0 | 11.0 | 0.00 | 0.72 | 0.72 | 75 | 1013.2 |
| 20260505115103 | 67 | 220 | 4.0 | 11.0 | 0.00 | 0.72 | 0.72 | 75 | 1013.1 |
| 20260505115003 | 67 | 220 | 4.0 | 11.0 | 0.00 | 0.72 | 0.72 | 75 | 1013.2 |
| 20260505114903 | 67 | 219 | 4.0 | 11.0 | 0.00 | 0.72 | 0.72 | 76 | 1013.2 |
| 20260505114803 | 67 | 221 | 5.0 | 11.0 | 0.00 | 0.72 | 0.72 | 76 | 1013.2 |
| 20260505114703 | 67 | 220 | 5.0 | 11.0 | 0.00 | 0.72 | 0.72 | 76 | 1013.2 |
| 20260505114603 | 67 | 220 | 5.0 | 10.0 | 0.00 | 0.72 | 0.72 | 75 | 1013.2 |
| 20260505114503 | 67 | 221 | 5.0 | 11.0 | 0.00 | 0.72 | 0.72 | 75 | 1013.2 |
| 20260505114403 | 67 | 217 | 6.0 | 11.0 | 0.00 | 0.72 | 0.72 | 75 | 1013.2 |
| 20260505114304 | 67 | 216 | 6.0 | 11.0 | 0.00 | 0.72 | 0.72 | 77 | 1013.2 |
| 20260505114203 | 67 | 217 | 6.0 | 11.0 | 0.00 | 0.72 | 0.72 | 77 | 1013.2 |
| 20260505114103 | 67 | 216 | 6.0 | 11.0 | 0.00 | 0.72 | 0.72 | 77 | 1013.2 |
| 20260505114003 | 67 | 216 | 6.0 | 12.0 | 0.00 | 0.72 | 0.72 | 76 | 1013.3 |
| 20260505113903 | 67 | 217 | 6.0 | 12.0 | 0.00 | 0.72 | 0.72 | 76 | 1013.3 |
| 20260505113803 | 67 | 216 | 6.0 | 12.0 | 0.00 | 0.72 | 0.72 | 76 | 1013.3 |
| 20260505113703 | 67 | 217 | 6.0 | 12.0 | 0.00 | 0.72 | 0.72 | 77 | 1013.3 |
| 20260505113603 | 67 | 218 | 6.0 | 12.0 | 0.00 | 0.72 | 0.72 | 77 | 1013.4 |
| 20260505113503 | 67 | 216 | 6.0 | 14.0 | 0.00 | 0.72 | 0.72 | 76 | 1013.4 |
| 20260505113403 | 67 | 218 | 6.0 | 14.0 | 0.00 | 0.72 | 0.72 | 77 | 1013.3 |
| 20260505113303 | 67 | 218 | 6.0 | 14.0 | 0.00 | 0.72 | 0.72 | 76 | 1013.4 |
| 20260505113203 | 67 | 218 | 6.0 | 14.0 | 0.00 | 0.72 | 0.72 | 76 | 1013.4 |
| 20260505113103 | 67 | 218 | 6.0 | 14.0 | 0.00 | 0.72 | 0.72 | 76 | 1013.4 |
| 20260505113003 | 67 | 219 | 6.0 | 14.0 | 0.00 | 0.72 | 0.72 | 76 | 1013.4 |
| 20260505112903 | 67 | 217 | 6.0 | 14.0 | 0.00 | 0.72 | 0.72 | 76 | 1013.4 |
| 20260505112803 | 68 | 217 | 6.0 | 14.0 | 0.00 | 0.72 | 0.72 | 76 | 1013.4 |
| 20260505112703 | 68 | 217 | 6.0 | 14.0 | 0.00 | 0.72 | 0.72 | 76 | 1013.4 |
| 20260505112603 | 68 | 217 | 6.0 | 14.0 | 0.00 | 0.72 | 0.72 | 77 | 1013.4 |
| 20260505112503 | 68 | 217 | 6.0 | 12.0 | 0.00 | 0.72 | 0.72 | 77 | 1013.4 |
| 20260505112403 | 67 | 216 | 6.0 | 12.0 | 0.00 | 0.72 | 0.72 | 77 | 1013.4 |
| 20260505112304 | 67 | 215 | 6.0 | 12.0 | 0.00 | 0.72 | 0.72 | 76 | 1013.4 |
| 20260505112203 | 67 | 214 | 6.0 | 12.0 | 0.00 | 0.72 | 0.72 | 76 | 1013.3 |
| 20260505112103 | 67 | 216 | 6.0 | 12.0 | 0.00 | 0.72 | 0.72 | 76 | 1013.3 |
| 20260505112004 | 67 | 214 | 7.0 | 12.0 | 0.00 | 0.72 | 0.72 | 76 | 1013.3 |
| 20260505111903 | 67 | 212 | 7.0 | 12.0 | 0.00 | 0.72 | 0.72 | 76 | 1013.3 |
| 20260505111803 | 67 | 212 | 7.0 | 12.0 | 0.00 | 0.72 | 0.72 | 75 | 1013.2 |
| 20260505111703 | 67 | 212 | 7.0 | 12.0 | 0.00 | 0.72 | 0.72 | 76 | 1013.2 |
| 20260505111603 | 67 | 212 | 7.0 | 13.0 | 0.00 | 0.72 | 0.72 | 76 | 1013.2 |
| 20260505111503 | 67 | 212 | 7.0 | 13.0 | 0.00 | 0.72 | 0.72 | 77 | 1013.3 |
| 20260505111403 | 67 | 213 | 7.0 | 13.0 | 0.00 | 0.72 | 0.72 | 77 | 1013.3 |
| 20260505111303 | 67 | 213 | 7.0 | 14.0 | 0.00 | 0.72 | 0.72 | 77 | 1013.3 |
| 20260505111203 | 67 | 213 | 6.0 | 14.0 | 0.00 | 0.72 | 0.72 | 77 | 1013.2 |
| 20260505111103 | 67 | 211 | 6.0 | 14.0 | 0.00 | 0.72 | 0.72 | 77 | 1013.2 |
| 20260505111003 | 67 | 212 | 6.0 | 14.0 | 0.00 | 0.72 | 0.72 | 77 | 1013.2 |
| 20260505110903 | 67 | 213 | 6.0 | 14.0 | 0.00 | 0.72 | 0.72 | 77 | 1013.2 |
| 20260505110803 | 67 | 213 | 6.0 | 14.0 | 0.00 | 0.72 | 0.72 | 76 | 1013.2 |
| 20260505110703 | 67 | 213 | 6.0 | 14.0 | 0.00 | 0.72 | 0.72 | 76 | 1013.2 |
| 20260505110603 | 67 | 212 | 5.0 | 14.0 | 0.00 | 0.72 | 0.72 | 76 | 1013.2 |
| 20260505110503 | 67 | 212 | 5.0 | 14.0 | 0.00 | 0.72 | 0.72 | 76 | 1013.2 |
| 20260505110403 | 67 | 211 | 5.0 | 14.0 | 0.00 | 0.72 | 0.72 | 76 | 1013.2 |
| 20260505110303 | 67 | 209 | 5.0 | 12.0 | 0.00 | 0.72 | 0.72 | 76 | 1013.2 |
| 20260505110203 | 67 | 211 | 5.0 | 12.0 | 0.00 | 0.72 | 0.72 | 76 | 1013.2 |
| 20260505102203 | 67 | 207 | 6.0 | 12.0 | 0.00 | 0.72 | 0.72 | 75 | 1013.2 |
| 20260505102103 | 67 | 208 | 6.0 | 12.0 | 0.00 | 0.72 | 0.72 | 76 | 1013.2 |
| 20260505102004 | 67 | 210 | 6.0 | 12.0 | 0.00 | 0.72 | 0.72 | 76 | 1013.1 |
| 20260505101903 | 67 | 211 | 6.0 | 12.0 | 0.00 | 0.72 | 0.72 | 75 | 1013.1 |
| 20260505101803 | 67 | 212 | 6.0 | 12.0 | 0.00 | 0.72 | 0.72 | 76 | 1013.0 |
| 20260505101704 | 67 | 212 | 5.0 | 12.0 | 0.00 | 0.72 | 0.72 | 77 | 1013.0 |
| 20260505101603 | 67 | 214 | 5.0 | 12.0 | 0.00 | 0.72 | 0.72 | 77 | 1013.0 |
| 20260505101503 | 67 | 215 | 5.0 | 11.0 | 0.00 | 0.72 | 0.72 | 77 | 1013.0 |
| 20260505101403 | 67 | 215 | 5.0 | 11.0 | 0.00 | 0.72 | 0.72 | 77 | 1013.0 |
| 20260505101303 | 67 | 215 | 5.0 | 11.0 | 0.00 | 0.72 | 0.72 | 77 | 1013.0 |
| 20260505101203 | 67 | 216 | 4.0 | 11.0 | 0.00 | 0.72 | 0.72 | 77 | 1013.0 |
| 20260505101103 | 67 | 216 | 4.0 | 11.0 | 0.00 | 0.72 | 0.72 | 78 | 1013.0 |
| 20260505101003 | 67 | 216 | 4.0 | 11.0 | 0.00 | 0.72 | 0.72 | 78 | 1013.0 |
| 20260505100903 | 67 | 216 | 4.0 | 11.0 | 0.00 | 0.72 | 0.72 | 78 | 1013.0 |
| 20260505100804 | 67 | 216 | 4.0 | 10.0 | 0.00 | 0.72 | 0.72 | 78 | 1012.9 |
| 20260505100703 | 67 | 215 | 4.0 | 10.0 | 0.00 | 0.72 | 0.72 | 77 | 1012.9 |
| 20260505100603 | 67 | 215 | 4.0 | 9.0 | 0.00 | 0.72 | 0.72 | 79 | 1012.9 |
| 20260505100503 | 67 | 214 | 4.0 | 9.0 | 0.00 | 0.72 | 0.72 | 79 | 1012.9 |
| 20260505100403 | 67 | 215 | 4.0 | 11.0 | 0.00 | 0.72 | 0.72 | 80 | 1012.9 |
| 20260505100303 | 66 | 216 | 4.0 | 11.0 | 0.00 | 0.72 | 0.72 | 81 | 1012.9 |
| 20260505100203 | 66 | 216 | 4.0 | 11.0 | 0.00 | 0.72 | 0.72 | 81 | 1012.9 |
| 20260505100003 | 66 | 217 | 4.0 | 11.0 | 0.00 | 0.72 | 0.72 | 80 | 1012.8 |
| 20260505095903 | 66 | 218 | 4.0 | 11.0 | 0.00 | 0.72 | 0.72 | 82 | 1012.8 |
| 20260505095803 | 66 | 217 | 4.0 | 11.0 | 0.00 | 0.72 | 0.72 | 82 | 1012.9 |
| 20260505095703 | 66 | 219 | 4.0 | 11.0 | 0.00 | 0.72 | 0.72 | 81 | 1012.9 |
| 20260505095603 | 66 | 220 | 4.0 | 11.0 | 0.00 | 0.72 | 0.72 | 82 | 1012.9 |
| 20260505095503 | 66 | 220 | 4.0 | 11.0 | 0.00 | 0.72 | 0.72 | 82 | 1012.9 |
| 20260505095403 | 66 | 221 | 4.0 | 11.0 | 0.00 | 0.72 | 0.72 | 83 | 1012.9 |
| 20260505095305 | 65 | 222 | 4.0 | 11.0 | 0.00 | 0.72 | 0.72 | 81 | 1012.9 |
| 20260505095203 | 65 | 221 | 5.0 | 11.0 | 0.00 | 0.72 | 0.72 | 81 | 1012.9 |
| 20260505095103 | 65 | 222 | 5.0 | 11.0 | 0.00 | 0.72 | 0.72 | 82 | 1012.8 |
| 20260505095003 | 65 | 221 | 5.0 | 12.0 | 0.00 | 0.72 | 0.72 | 83 | 1012.8 |
| 20260505094903 | 65 | 220 | 5.0 | 12.0 | 0.00 | 0.72 | 0.72 | 83 | 1012.7 |
| 20260505094803 | 65 | 220 | 5.0 | 12.0 | 0.00 | 0.72 | 0.72 | 83 | 1012.7 |
| 20260505094703 | 65 | 218 | 5.0 | 12.0 | 0.00 | 0.72 | 0.72 | 82 | 1012.7 |
| 20260505094603 | 65 | 216 | 5.0 | 12.0 | 0.00 | 0.72 | 0.72 | 82 | 1012.7 |
| 20260505094503 | 65 | 216 | 4.0 | 12.0 | 0.00 | 0.72 | 0.72 | 83 | 1012.7 |
| 20260505094403 | 65 | 215 | 4.0 | 12.0 | 0.00 | 0.72 | 0.72 | 83 | 1012.7 |
| 20260505094303 | 65 | 214 | 4.0 | 12.0 | 0.00 | 0.72 | 0.72 | 83 | 1012.7 |
| 20260505094203 | 65 | 213 | 3.0 | 12.0 | 0.00 | 0.72 | 0.72 | 83 | 1012.8 |
| 20260505094103 | 65 | 214 | 3.0 | 13.0 | 0.00 | 0.72 | 0.72 | 83 | 1012.8 |
| 20260505094003 | 65 | 215 | 3.0 | 13.0 | 0.00 | 0.72 | 0.72 | 83 | 1012.7 |
| 20260505093903 | 65 | 215 | 2.0 | 13.0 | 0.00 | 0.72 | 0.72 | 83 | 1012.8 |
| 20260505093803 | 65 | 214 | 2.0 | 13.0 | 0.00 | 0.72 | 0.72 | 84 | 1012.8 |
| 20260505093703 | 65 | 215 | 2.0 | 13.0 | 0.00 | 0.72 | 0.72 | 84 | 1012.8 |
| 20260505093603 | 65 | 217 | 2.0 | 13.0 | 0.00 | 0.72 | 0.72 | 85 | 1012.8 |
| 20260505093503 | 65 | 218 | 2.0 | 13.0 | 0.00 | 0.72 | 0.72 | 85 | 1012.8 |
| 20260505093403 | 65 | 220 | 1.0 | 13.0 | 0.00 | 0.72 | 0.72 | 85 | 1012.8 |
| 20260505093303 | 65 | 222 | 1.0 | 13.0 | 0.00 | 0.72 | 0.72 | 85 | 1012.8 |
| 20260505093203 | 65 | 227 | 1.0 | 13.0 | 0.00 | 0.72 | 0.72 | 85 | 1012.8 |
| 20260505093103 | 64 | 228 | 1.0 | 9.0 | 0.00 | 0.72 | 0.72 | 85 | 1012.7 |
| 20260505093003 | 64 | 228 | 1.0 | 7.0 | 0.00 | 0.72 | 0.72 | 82 | 1012.7 |
| 20260505092903 | 64 | 229 | 1.0 | 7.0 | 0.00 | 0.72 | 0.72 | 84 | 1012.8 |
| 20260505092803 | 64 | 229 | 1.0 | 7.0 | 0.00 | 0.72 | 0.72 | 83 | 1012.7 |
| 20260505092703 | 64 | 231 | 1.0 | 7.0 | 0.00 | 0.72 | 0.72 | 82 | 1012.8 |
| 20260505092603 | 64 | 239 | 1.0 | 7.0 | 0.00 | 0.72 | 0.72 | 83 | 1012.7 |
| 20260505092503 | 64 | 280 | 1.0 | 5.0 | 0.00 | 0.72 | 0.72 | 83 | 1012.7 |
| 20260505092403 | 64 | 342 | 1.0 | 4.0 | 0.00 | 0.72 | 0.72 | 82 | 1012.7 |
| 20260505092305 | 63 | 7 | 1.0 | 4.0 | 0.00 | 0.72 | 0.72 | 82 | 1012.7 |
| 20260505092203 | 63 | 18 | 1.0 | 4.0 | 0.00 | 0.72 | 0.72 | 81 | 1012.7 |
| 20260505092103 | 63 | 18 | 1.0 | 4.0 | 0.00 | 0.72 | 0.72 | 82 | 1012.6 |
| 20260505092003 | 63 | 18 | 0.0 | 4.0 | 0.00 | 0.72 | 0.72 | 81 | 1012.6 |
| 20260505091903 | 63 | 18 | 0.0 | 4.0 | 0.00 | 0.72 | 0.72 | 81 | 1012.7 |
| 20260505091803 | 63 | 18 | 0.0 | 4.0 | 0.00 | 0.72 | 0.72 | 82 | 1012.6 |
| 20260505091703 | 63 | 18 | 0.0 | 4.0 | 0.00 | 0.72 | 0.72 | 82 | 1012.6 |
| 20260505091603 | 63 | 18 | 0.0 | 4.0 | 0.00 | 0.72 | 0.72 | 81 | 1012.6 |
| 20260505091503 | 63 | 0 | 0.0 | 4.0 | 0.00 | 0.72 | 0.72 | 82 | 1012.6 |
| 20260505091403 | 63 | 0 | 0.0 | 4.0 | 0.00 | 0.72 | 0.72 | 82 | 1012.6 |
| 20260505091304 | 63 | 0 | 0.0 | 2.0 | 0.00 | 0.72 | 0.72 | 83 | 1012.7 |
| 20260505091203 | 63 | 0 | 0.0 | 2.0 | 0.00 | 0.72 | 0.72 | 82 | 1012.6 |
| 20260505091103 | 63 | 0 | 0.0 | 2.0 | 0.00 | 0.72 | 0.72 | 82 | 1012.6 |
| 20260505091003 | 62 | 0 | 0.0 | 2.0 | 0.00 | 0.72 | 0.72 | 82 | 1012.6 |
| 20260505090903 | 62 | 0 | 0.0 | 2.0 | 0.00 | 0.72 | 0.72 | 83 | 1012.7 |
| 20260505090803 | 62 | 0 | 0.0 | 2.0 | 0.00 | 0.72 | 0.72 | 83 | 1012.7 |
| 20260505090703 | 62 | 0 | 0.0 | 2.0 | 0.00 | 0.72 | 0.72 | 83 | 1012.7 |
| 20260505090603 | 62 | 17 | 0.0 | 2.0 | 0.00 | 0.72 | 0.72 | 82 | 1012.6 |
| 20260505090504 | 62 | 17 | 0.0 | 2.0 | 0.00 | 0.72 | 0.72 | 82 | 1012.6 |
| 20260505090403 | 62 | 17 | 0.0 | 2.0 | 0.00 | 0.72 | 0.72 | 83 | 1012.6 |
| 20260505090303 | 62 | 17 | 0.0 | 2.0 | 0.00 | 0.72 | 0.72 | 83 | 1012.6 |
| 20260505090203 | 62 | 17 | 1.0 | 2.0 | 0.00 | 0.72 | 0.72 | 82 | 1012.6 |
| 20260505090104 | 62 | 17 | 1.0 | 2.0 | 0.00 | 0.72 | 0.72 | 82 | 1012.6 |
| 20260505090004 | 62 | 17 | 1.0 | 2.0 | 0.00 | 0.72 | 0.72 | 83 | 1012.6 |
| 20260505085903 | 62 | 17 | 1.0 | 2.0 | 0.00 | 0.72 | 0.72 | 82 | 1012.6 |
| 20260505085803 | 62 | 17 | 1.0 | 4.0 | 0.00 | 0.72 | 0.72 | 81 | 1012.6 |
| 20260505085703 | 62 | 17 | 2.0 | 4.0 | 0.00 | 0.72 | 0.72 | 81 | 1012.6 |
| 20260505085603 | 62 | 17 | 2.0 | 5.0 | 0.00 | 0.72 | 0.72 | 81 | 1012.6 |
| 20260505085503 | 62 | 11 | 2.0 | 6.0 | 0.00 | 0.72 | 0.72 | 82 | 1012.6 |
| 20260505085403 | 62 | 6 | 2.0 | 6.0 | 0.00 | 0.72 | 0.72 | 82 | 1012.5 |
| 20260505085304 | 62 | 2 | 2.0 | 9.0 | 0.00 | 0.72 | 0.72 | 81 | 1012.6 |
| 20260505085203 | 61 | 3 | 2.0 | 9.0 | 0.00 | 0.72 | 0.72 | 81 | 1012.6 |
| 20260505085103 | 61 | 8 | 2.0 | 9.0 | 0.00 | 0.72 | 0.72 | 80 | 1012.6 |
| 20260505085003 | 61 | 8 | 2.0 | 9.0 | 0.00 | 0.72 | 0.72 | 80 | 1012.5 |
| 20260505084903 | 61 | 6 | 2.0 | 9.0 | 0.00 | 0.72 | 0.72 | 80 | 1012.5 |
| 20260505084803 | 61 | 4 | 2.0 | 9.0 | 0.00 | 0.72 | 0.72 | 79 | 1012.5 |
| 20260505084703 | 61 | 3 | 1.0 | 9.0 | 0.00 | 0.72 | 0.72 | 80 | 1012.5 |
| 20260505084603 | 61 | 2 | 1.0 | 9.0 | 0.00 | 0.72 | 0.72 | 79 | 1012.5 |
| 20260505084503 | 61 | 1 | 1.0 | 9.0 | 0.00 | 0.72 | 0.72 | 80 | 1012.5 |
| 20260505084403 | 61 | 3 | 1.0 | 9.0 | 0.00 | 0.72 | 0.72 | 80 | 1012.5 |
| 20260505084303 | 61 | 6 | 1.0 | 9.0 | 0.00 | 0.72 | 0.72 | 82 | 1012.5 |
| 20260505084203 | 61 | 5 | 1.0 | 6.0 | 0.00 | 0.72 | 0.72 | 81 | 1012.5 |
| 20260505084103 | 61 | 355 | 1.0 | 6.0 | 0.00 | 0.72 | 0.72 | 82 | 1012.5 |
| 20260505084003 | 60 | 354 | 1.0 | 6.0 | 0.00 | 0.72 | 0.72 | 81 | 1012.5 |
| 20260505083903 | 60 | 354 | 1.0 | 5.0 | 0.00 | 0.72 | 0.72 | 83 | 1012.5 |
| 20260505083803 | 60 | 356 | 1.0 | 5.0 | 0.00 | 0.72 | 0.72 | 82 | 1012.5 |
| 20260505083703 | 60 | 354 | 1.0 | 5.0 | 0.00 | 0.72 | 0.72 | 83 | 1012.5 |
| 20260505083603 | 60 | 1 | 1.0 | 12.0 | 0.00 | 0.72 | 0.72 | 83 | 1012.5 |
| 20260505083503 | 60 | 360 | 1.0 | 12.0 | 0.00 | 0.72 | 0.72 | 83 | 1012.5 |
| 20260505083403 | 60 | 359 | 1.0 | 12.0 | 0.00 | 0.72 | 0.72 | 83 | 1012.5 |
| 20260505083305 | 60 | 358 | 2.0 | 12.0 | 0.00 | 0.72 | 0.72 | 82 | 1012.5 |
| 20260505083203 | 60 | 358 | 2.0 | 12.0 | 0.00 | 0.72 | 0.72 | 82 | 1012.5 |
| 20260505083103 | 60 | 356 | 2.0 | 12.0 | 0.00 | 0.72 | 0.72 | 82 | 1012.5 |
| 20260505083003 | 60 | 355 | 2.0 | 12.0 | 0.00 | 0.72 | 0.72 | 82 | 1012.5 |
| 20260505082904 | 60 | 354 | 2.0 | 12.0 | 0.00 | 0.72 | 0.72 | 82 | 1012.5 |
| 20260505082803 | 60 | 353 | 2.0 | 12.0 | 0.00 | 0.72 | 0.72 | 82 | 1012.5 |
| 20260505082703 | 60 | 353 | 1.0 | 12.0 | 0.00 | 0.72 | 0.72 | 81 | 1012.5 |
| 20260505082603 | 60 | 347 | 1.0 | 8.0 | 0.00 | 0.72 | 0.72 | 82 | 1012.5 |
| 20260505082503 | 60 | 347 | 1.0 | 8.0 | 0.00 | 0.72 | 0.72 | 82 | 1012.5 |
| 20260505082403 | 60 | 352 | 1.0 | 8.0 | 0.00 | 0.72 | 0.72 | 83 | 1012.5 |
| 20260505082304 | 60 | 4 | 1.0 | 8.0 | 0.00 | 0.72 | 0.72 | 82 | 1012.5 |
| 20260505082203 | 60 | 4 | 1.0 | 10.0 | 0.00 | 0.72 | 0.72 | 82 | 1012.5 |
| 20260505082103 | 60 | 6 | 1.0 | 10.0 | 0.00 | 0.72 | 0.72 | 83 | 1012.5 |
| 20260505082003 | 60 | 9 | 1.0 | 10.0 | 0.00 | 0.72 | 0.72 | 83 | 1012.5 |
| 20260505081903 | 59 | 11 | 1.0 | 10.0 | 0.00 | 0.72 | 0.72 | 83 | 1012.5 |
| 20260505081803 | 59 | 11 | 1.0 | 10.0 | 0.00 | 0.72 | 0.72 | 83 | 1012.4 |
| 20260505081703 | 59 | 10 | 0.0 | 10.0 | 0.00 | 0.72 | 0.72 | 83 | 1012.5 |
| 20260505081603 | 59 | 14 | 0.0 | 10.0 | 0.00 | 0.72 | 0.72 | 83 | 1012.4 |
| 20260505081503 | 59 | 13 | 0.0 | 10.0 | 0.00 | 0.72 | 0.72 | 83 | 1012.5 |
| 20260505081403 | 59 | 10 | 0.0 | 10.0 | 0.00 | 0.72 | 0.72 | 83 | 1012.5 |
| 20260505081304 | 59 | 359 | 0.0 | 10.0 | 0.00 | 0.72 | 0.72 | 85 | 1012.4 |
| 20260505081203 | 59 | 355 | 0.0 | 4.0 | 0.00 | 0.72 | 0.72 | 85 | 1012.4 |
| 20260505081103 | 59 | 355 | 0.0 | 4.0 | 0.00 | 0.72 | 0.72 | 85 | 1012.4 |
| 20260505081003 | 59 | 355 | 0.0 | 4.0 | 0.00 | 0.72 | 0.72 | 85 | 1012.4 |
| 20260505080903 | 59 | 353 | 0.0 | 4.0 | 0.00 | 0.72 | 0.72 | 86 | 1012.4 |
| 20260505080803 | 59 | 353 | 0.0 | 4.0 | 0.00 | 0.72 | 0.72 | 86 | 1012.4 |
| 20260505080703 | 59 | 5 | 0.0 | 4.0 | 0.00 | 0.72 | 0.72 | 86 | 1012.4 |
| 20260505080604 | 59 | 13 | 0.0 | 4.0 | 0.00 | 0.72 | 0.72 | 85 | 1012.4 |
| 20260505080503 | 59 | 13 | 0.0 | 4.0 | 0.00 | 0.72 | 0.72 | 86 | 1012.4 |
| 20260505080403 | 59 | 14 | 0.0 | 4.0 | 0.00 | 0.72 | 0.72 | 86 | 1012.5 |
| 20260505080303 | 59 | 19 | 0.0 | 4.0 | 0.01 | 0.72 | 0.72 | 86 | 1012.4 |
| 20260505080203 | 59 | 44 | 0.0 | 5.0 | 0.01 | 0.72 | 0.72 | 86 | 1012.5 |
| 20260505080103 | 59 | 40 | 0.0 | 5.0 | 0.01 | 0.72 | 0.72 | 86 | 1012.6 |
| 20260505080003 | 59 | 40 | 0.0 | 5.0 | 0.01 | 0.72 | 0.72 | 85 | 1012.6 |
| 20260505075903 | 59 | 48 | 0.0 | 5.0 | 0.01 | 0.72 | 0.72 | 86 | 1012.6 |
| 20260505075803 | 59 | 54 | 0.0 | 5.0 | 0.01 | 0.72 | 0.72 | 86 | 1012.6 |
| 20260505075703 | 59 | 0 | 0.0 | 5.0 | 0.01 | 0.72 | 0.72 | 87 | 1012.6 |
| 20260505075603 | 59 | 0 | 0.0 | 5.0 | 0.01 | 0.72 | 0.72 | 87 | 1012.6 |
| 20260505075503 | 59 | 0 | 0.0 | 5.0 | 0.01 | 0.72 | 0.72 | 87 | 1012.6 |
| 20260505075403 | 59 | 0 | 0.0 | 5.0 | 0.01 | 0.72 | 0.72 | 87 | 1012.6 |
| 20260505075304 | 59 | 0 | 0.0 | 5.0 | 0.01 | 0.72 | 0.72 | 87 | 1012.6 |
| 20260505075203 | 59 | 0 | 0.0 | 3.0 | 0.01 | 0.72 | 0.72 | 88 | 1012.6 |
| 20260505075103 | 59 | 0 | 0.0 | 2.0 | 0.01 | 0.72 | 0.72 | 88 | 1012.6 |
| 20260505075003 | 59 | 0 | 0.0 | 2.0 | 0.01 | 0.72 | 0.72 | 88 | 1012.7 |
| 20260505074903 | 59 | 0 | 0.0 | 0.0 | 0.01 | 0.72 | 0.72 | 88 | 1012.7 |
| 20260505074803 | 59 | 0 | 0.0 | 0.0 | 0.01 | 0.72 | 0.72 | 88 | 1012.7 |
| 20260505074703 | 59 | 0 | 0.0 | 0.0 | 0.01 | 0.72 | 0.72 | 89 | 1012.7 |
| 20260505074603 | 59 | 0 | 0.0 | 0.0 | 0.01 | 0.72 | 0.72 | 89 | 1012.7 |
| 20260505074503 | 59 | 0 | 0.0 | 0.0 | 0.01 | 0.72 | 0.72 | 89 | 1012.7 |
| 20260505074403 | 59 | 0 | 0.0 | 0.0 | 0.01 | 0.72 | 0.72 | 89 | 1012.7 |
| 20260505074303 | 59 | 0 | 0.0 | 0.0 | 0.01 | 0.72 | 0.72 | 89 | 1012.6 |
| 20260505074203 | 59 | 0 | 0.0 | 0.0 | 0.01 | 0.72 | 0.72 | 88 | 1012.6 |
| 20260505074103 | 59 | 0 | 0.0 | 0.0 | 0.01 | 0.72 | 0.72 | 88 | 1012.6 |
| 20260505074003 | 59 | 0 | 0.0 | 0.0 | 0.01 | 0.72 | 0.72 | 88 | 1012.6 |
| 20260505073903 | 59 | 0 | 0.0 | 0.0 | 0.01 | 0.72 | 0.72 | 88 | 1012.6 |
| 20260505073803 | 59 | 0 | 0.0 | 0.0 | 0.01 | 0.72 | 0.72 | 88 | 1012.6 |
| 20260505073703 | 59 | 0 | 0.0 | 0.0 | 0.02 | 0.72 | 0.72 | 88 | 1012.5 |
| 20260505073603 | 59 | 0 | 0.0 | 0.0 | 0.02 | 0.72 | 0.72 | 88 | 1012.6 |
| 20260505073503 | 59 | 0 | 0.0 | 0.0 | 0.02 | 0.72 | 0.72 | 88 | 1012.6 |
| 20260505073404 | 59 | 0 | 0.0 | 0.0 | 0.02 | 0.72 | 0.72 | 88 | 1012.6 |
| 20260505073303 | 59 | 0 | 1.0 | 0.0 | 0.02 | 0.72 | 0.72 | 88 | 1012.6 |
| 20260505073204 | 59 | 13 | 1.0 | 2.0 | 0.02 | 0.72 | 0.72 | 88 | 1012.6 |
| 20260505073103 | 59 | 29 | 1.0 | 6.0 | 0.03 | 0.72 | 0.72 | 88 | 1012.6 |
| 20260505073003 | 59 | 29 | 1.0 | 6.0 | 0.03 | 0.72 | 0.72 | 88 | 1012.5 |
| 20260505072903 | 59 | 29 | 1.0 | 6.0 | 0.03 | 0.72 | 0.72 | 88 | 1012.5 |
| 20260505072805 | 59 | 29 | 1.0 | 6.0 | 0.03 | 0.72 | 0.72 | 88 | 1012.5 |
| 20260505072703 | 59 | 28 | 1.0 | 6.0 | 0.03 | 0.72 | 0.72 | 88 | 1012.5 |
| 20260505072603 | 59 | 25 | 1.0 | 6.0 | 0.03 | 0.72 | 0.72 | 88 | 1012.5 |
| 20260505072503 | 59 | 25 | 1.0 | 6.0 | 0.03 | 0.72 | 0.72 | 88 | 1012.5 |
| 20260505072403 | 59 | 25 | 1.0 | 6.0 | 0.03 | 0.72 | 0.72 | 88 | 1012.6 |
| 20260505072305 | 59 | 25 | 0.0 | 6.0 | 0.03 | 0.72 | 0.72 | 88 | 1012.6 |
| 20260505072203 | 59 | 25 | 0.0 | 6.0 | 0.03 | 0.72 | 0.72 | 88 | 1012.6 |
| 20260505072103 | 59 | 22 | 0.0 | 5.0 | 0.03 | 0.72 | 0.72 | 88 | 1012.5 |
| 20260505072003 | 59 | 22 | 0.0 | 5.0 | 0.03 | 0.72 | 0.72 | 88 | 1012.5 |
| 20260505071903 | 59 | 21 | 0.0 | 5.0 | 0.03 | 0.72 | 0.72 | 88 | 1012.5 |
| 20260505071805 | 59 | 0 | 0.0 | 5.0 | 0.03 | 0.72 | 0.72 | 88 | 1012.5 |
| 20260505071703 | 59 | 0 | 0.0 | 5.0 | 0.03 | 0.72 | 0.72 | 89 | 1012.5 |
| 20260505071603 | 59 | 0 | 0.0 | 0.0 | 0.03 | 0.72 | 0.72 | 89 | 1012.4 |
| 20260505071503 | 59 | 0 | 0.0 | 0.0 | 0.03 | 0.72 | 0.72 | 89 | 1012.5 |
| 20260505071403 | 59 | 0 | 0.0 | 0.0 | 0.03 | 0.72 | 0.72 | 89 | 1012.4 |
| 20260505071303 | 59 | 0 | 0.0 | 0.0 | 0.03 | 0.72 | 0.72 | 89 | 1012.4 |
| 20260505071203 | 59 | 0 | 0.0 | 0.0 | 0.03 | 0.72 | 0.72 | 89 | 1012.4 |
| 20260505071103 | 59 | 0 | 0.0 | 0.0 | 0.03 | 0.72 | 0.72 | 89 | 1012.5 |
| 20260505071003 | 59 | 0 | 0.0 | 0.0 | 0.03 | 0.72 | 0.72 | 89 | 1012.4 |
| 20260505070903 | 59 | 0 | 0.0 | 0.0 | 0.03 | 0.72 | 0.72 | 89 | 1012.4 |
| 20260505070803 | 59 | 0 | 0.0 | 0.0 | 0.03 | 0.72 | 0.72 | 89 | 1012.4 |
| 20260505070703 | 59 | 0 | 0.0 | 0.0 | 0.03 | 0.72 | 0.72 | 89 | 1012.4 |
| 20260505070603 | 59 | 0 | 0.0 | 0.0 | 0.03 | 0.72 | 0.72 | 88 | 1012.4 |
| 20260505070503 | 59 | 0 | 0.0 | 0.0 | 0.03 | 0.72 | 0.72 | 88 | 1012.4 |
| 20260505070403 | 59 | 0 | 0.0 | 0.0 | 0.03 | 0.72 | 0.72 | 88 | 1012.4 |
| 20260505070303 | 59 | 0 | 0.0 | 0.0 | 0.02 | 0.71 | 0.71 | 88 | 1012.4 |
| 20260505070203 | 59 | 0 | 0.0 | 0.0 | 0.02 | 0.71 | 0.71 | 88 | 1012.5 |